<?xml version="1.0" encoding="UTF-8" standalone="no" ?>
<gpx xmlns="http://www.topografix.com/GPX/1/1" xmlns:xsi="http://www.w3.org/2001/XMLSchema-instance" xsi:schemaLocation="http://www.topografix.com/GPX/1/1 http://www.topografix.com/GPX/1/1/gpx.xsd" version="1.1" creator="VisuGPX - https://www.visugpx.com">
  <metadata>
    <name>83 - M - ROQUEBRUNE</name>
    <desc><![CDATA[ROQUEBRUNE : sur la piste des 3 frontières, St Martin , Le Blavet]]></desc>
  </metadata>
  <wpt lat="43.50759" lon="6.65238">
    <ele>144</ele>
    <name><![CDATA[Point de passage 1]]></name>
    <type><![CDATA[GENERIC]]></type>
  </wpt>
  <wpt lat="43.50773" lon="6.65265">
    <ele>136</ele>
    <name><![CDATA[Point de passage 2]]></name>
    <type><![CDATA[GENERIC]]></type>
  </wpt>
  <trk>
    <name><![CDATA[La bouverie mercredi]]></name>
    <trkseg>
      <trkpt lat="43.50759" lon="6.65238">
        <ele>144</ele>
        <time>2026-03-04T13:23:43.000Z</time>
      </trkpt>
      <trkpt lat="43.50754" lon="6.65242">
        <ele>139</ele>
        <time>2026-03-04T13:23:46.000Z</time>
      </trkpt>
      <trkpt lat="43.50753" lon="6.65233">
        <ele>139</ele>
        <time>2026-03-04T13:24:01.000Z</time>
      </trkpt>
      <trkpt lat="43.50756" lon="6.65222">
        <ele>140</ele>
        <time>2026-03-04T13:24:19.000Z</time>
      </trkpt>
      <trkpt lat="43.50766" lon="6.65222">
        <ele>138</ele>
        <time>2026-03-04T13:24:37.000Z</time>
      </trkpt>
      <trkpt lat="43.50776" lon="6.65224">
        <ele>138</ele>
        <time>2026-03-04T13:24:49.000Z</time>
      </trkpt>
      <trkpt lat="43.50785" lon="6.65228">
        <ele>138</ele>
        <time>2026-03-04T13:25:04.000Z</time>
      </trkpt>
      <trkpt lat="43.50794" lon="6.6523">
        <ele>138</ele>
        <time>2026-03-04T13:25:13.000Z</time>
      </trkpt>
      <trkpt lat="43.50801" lon="6.65233">
        <ele>138</ele>
        <time>2026-03-04T13:25:22.000Z</time>
      </trkpt>
      <trkpt lat="43.50792" lon="6.65234">
        <ele>138</ele>
        <time>2026-03-04T13:25:46.000Z</time>
      </trkpt>
      <trkpt lat="43.50781" lon="6.65239">
        <ele>138</ele>
        <time>2026-03-04T13:25:55.000Z</time>
      </trkpt>
      <trkpt lat="43.50772" lon="6.65249">
        <ele>138</ele>
        <time>2026-03-04T13:26:04.000Z</time>
      </trkpt>
      <trkpt lat="43.50764" lon="6.65257">
        <ele>139</ele>
        <time>2026-03-04T13:26:10.000Z</time>
      </trkpt>
      <trkpt lat="43.50759" lon="6.65263">
        <ele>138</ele>
        <time>2026-03-04T13:26:19.000Z</time>
      </trkpt>
      <trkpt lat="43.50766" lon="6.65255">
        <ele>138</ele>
        <time>2026-03-04T13:26:31.000Z</time>
      </trkpt>
      <trkpt lat="43.50775" lon="6.65245">
        <ele>137</ele>
        <time>2026-03-04T13:26:40.000Z</time>
      </trkpt>
      <trkpt lat="43.50784" lon="6.65237">
        <ele>137</ele>
        <time>2026-03-04T13:26:46.000Z</time>
      </trkpt>
      <trkpt lat="43.50794" lon="6.65236">
        <ele>136</ele>
        <time>2026-03-04T13:26:52.000Z</time>
      </trkpt>
      <trkpt lat="43.50804" lon="6.65237">
        <ele>136</ele>
        <time>2026-03-04T13:26:58.000Z</time>
      </trkpt>
      <trkpt lat="43.50815" lon="6.65239">
        <ele>136</ele>
        <time>2026-03-04T13:27:04.000Z</time>
      </trkpt>
      <trkpt lat="43.50825" lon="6.65243">
        <ele>136</ele>
        <time>2026-03-04T13:27:10.000Z</time>
      </trkpt>
      <trkpt lat="43.50835" lon="6.65246">
        <ele>136</ele>
        <time>2026-03-04T13:27:19.000Z</time>
      </trkpt>
      <trkpt lat="43.50846" lon="6.65251">
        <ele>137</ele>
        <time>2026-03-04T13:27:28.000Z</time>
      </trkpt>
      <trkpt lat="43.50855" lon="6.65254">
        <ele>137</ele>
        <time>2026-03-04T13:27:34.000Z</time>
      </trkpt>
      <trkpt lat="43.50864" lon="6.65255">
        <ele>138</ele>
        <time>2026-03-04T13:27:46.000Z</time>
      </trkpt>
      <trkpt lat="43.50872" lon="6.65246">
        <ele>138</ele>
        <time>2026-03-04T13:28:01.000Z</time>
      </trkpt>
      <trkpt lat="43.5088" lon="6.65236">
        <ele>139</ele>
        <time>2026-03-04T13:28:13.000Z</time>
      </trkpt>
      <trkpt lat="43.50886" lon="6.65226">
        <ele>139</ele>
        <time>2026-03-04T13:28:28.000Z</time>
      </trkpt>
      <trkpt lat="43.50893" lon="6.65216">
        <ele>139</ele>
        <time>2026-03-04T13:28:37.000Z</time>
      </trkpt>
      <trkpt lat="43.50899" lon="6.65207">
        <ele>139</ele>
        <time>2026-03-04T13:28:46.000Z</time>
      </trkpt>
      <trkpt lat="43.50905" lon="6.65196">
        <ele>139</ele>
        <time>2026-03-04T13:28:55.000Z</time>
      </trkpt>
      <trkpt lat="43.50908" lon="6.65182">
        <ele>139</ele>
        <time>2026-03-04T13:29:04.000Z</time>
      </trkpt>
      <trkpt lat="43.5091" lon="6.6517">
        <ele>138</ele>
        <time>2026-03-04T13:29:13.000Z</time>
      </trkpt>
      <trkpt lat="43.50915" lon="6.65159">
        <ele>138</ele>
        <time>2026-03-04T13:29:22.000Z</time>
      </trkpt>
      <trkpt lat="43.50922" lon="6.65149">
        <ele>138</ele>
        <time>2026-03-04T13:29:31.000Z</time>
      </trkpt>
      <trkpt lat="43.50929" lon="6.65139">
        <ele>138</ele>
        <time>2026-03-04T13:29:40.000Z</time>
      </trkpt>
      <trkpt lat="43.50934" lon="6.65126">
        <ele>137</ele>
        <time>2026-03-04T13:29:49.000Z</time>
      </trkpt>
      <trkpt lat="43.50939" lon="6.65114">
        <ele>137</ele>
        <time>2026-03-04T13:29:58.000Z</time>
      </trkpt>
      <trkpt lat="43.50943" lon="6.65102">
        <ele>136</ele>
        <time>2026-03-04T13:30:07.000Z</time>
      </trkpt>
      <trkpt lat="43.50949" lon="6.65092">
        <ele>136</ele>
        <time>2026-03-04T13:30:16.000Z</time>
      </trkpt>
      <trkpt lat="43.50955" lon="6.65081">
        <ele>136</ele>
        <time>2026-03-04T13:30:25.000Z</time>
      </trkpt>
      <trkpt lat="43.50961" lon="6.65071">
        <ele>135</ele>
        <time>2026-03-04T13:30:34.000Z</time>
      </trkpt>
      <trkpt lat="43.50966" lon="6.65061">
        <ele>135</ele>
        <time>2026-03-04T13:30:43.000Z</time>
      </trkpt>
      <trkpt lat="43.50969" lon="6.65048">
        <ele>135</ele>
        <time>2026-03-04T13:30:55.000Z</time>
      </trkpt>
      <trkpt lat="43.50969" lon="6.65034">
        <ele>135</ele>
        <time>2026-03-04T13:31:07.000Z</time>
      </trkpt>
      <trkpt lat="43.50969" lon="6.65022">
        <ele>135</ele>
        <time>2026-03-04T13:31:19.000Z</time>
      </trkpt>
      <trkpt lat="43.50968" lon="6.65009">
        <ele>135</ele>
        <time>2026-03-04T13:31:37.000Z</time>
      </trkpt>
      <trkpt lat="43.50968" lon="6.64996">
        <ele>134</ele>
        <time>2026-03-04T13:31:46.000Z</time>
      </trkpt>
      <trkpt lat="43.50968" lon="6.64983">
        <ele>134</ele>
        <time>2026-03-04T13:32:07.000Z</time>
      </trkpt>
      <trkpt lat="43.50972" lon="6.64975">
        <ele>134</ele>
        <time>2026-03-04T13:32:52.000Z</time>
      </trkpt>
      <trkpt lat="43.50969" lon="6.64981">
        <ele>134</ele>
        <time>2026-03-04T13:34:04.000Z</time>
      </trkpt>
      <trkpt lat="43.50974" lon="6.64988">
        <ele>134</ele>
        <time>2026-03-04T13:34:16.000Z</time>
      </trkpt>
      <trkpt lat="43.50983" lon="6.64989">
        <ele>135</ele>
        <time>2026-03-04T13:34:34.000Z</time>
      </trkpt>
      <trkpt lat="43.50992" lon="6.64986">
        <ele>135</ele>
        <time>2026-03-04T13:34:43.000Z</time>
      </trkpt>
      <trkpt lat="43.51002" lon="6.64985">
        <ele>136</ele>
        <time>2026-03-04T13:34:55.000Z</time>
      </trkpt>
      <trkpt lat="43.51012" lon="6.64985">
        <ele>137</ele>
        <time>2026-03-04T13:35:13.000Z</time>
      </trkpt>
      <trkpt lat="43.51021" lon="6.64985">
        <ele>138</ele>
        <time>2026-03-04T13:35:22.000Z</time>
      </trkpt>
      <trkpt lat="43.5103" lon="6.64984">
        <ele>139</ele>
        <time>2026-03-04T13:35:31.000Z</time>
      </trkpt>
      <trkpt lat="43.51039" lon="6.64984">
        <ele>141</ele>
        <time>2026-03-04T13:35:40.000Z</time>
      </trkpt>
      <trkpt lat="43.51047" lon="6.64983">
        <ele>142</ele>
        <time>2026-03-04T13:35:49.000Z</time>
      </trkpt>
      <trkpt lat="43.51056" lon="6.64982">
        <ele>143</ele>
        <time>2026-03-04T13:35:58.000Z</time>
      </trkpt>
      <trkpt lat="43.51067" lon="6.6498">
        <ele>144</ele>
        <time>2026-03-04T13:36:10.000Z</time>
      </trkpt>
      <trkpt lat="43.51076" lon="6.64977">
        <ele>145</ele>
        <time>2026-03-04T13:36:19.000Z</time>
      </trkpt>
      <trkpt lat="43.51086" lon="6.64973">
        <ele>146</ele>
        <time>2026-03-04T13:36:31.000Z</time>
      </trkpt>
      <trkpt lat="43.51095" lon="6.64967">
        <ele>147</ele>
        <time>2026-03-04T13:36:40.000Z</time>
      </trkpt>
      <trkpt lat="43.51103" lon="6.6496">
        <ele>147</ele>
        <time>2026-03-04T13:36:49.000Z</time>
      </trkpt>
      <trkpt lat="43.51112" lon="6.64952">
        <ele>148</ele>
        <time>2026-03-04T13:36:58.000Z</time>
      </trkpt>
      <trkpt lat="43.51121" lon="6.64946">
        <ele>149</ele>
        <time>2026-03-04T13:37:07.000Z</time>
      </trkpt>
      <trkpt lat="43.51131" lon="6.64941">
        <ele>150</ele>
        <time>2026-03-04T13:37:16.000Z</time>
      </trkpt>
      <trkpt lat="43.51141" lon="6.64938">
        <ele>150</ele>
        <time>2026-03-04T13:37:25.000Z</time>
      </trkpt>
      <trkpt lat="43.5115" lon="6.64937">
        <ele>151</ele>
        <time>2026-03-04T13:37:34.000Z</time>
      </trkpt>
      <trkpt lat="43.5116" lon="6.64938">
        <ele>151</ele>
        <time>2026-03-04T13:37:43.000Z</time>
      </trkpt>
      <trkpt lat="43.5117" lon="6.6494">
        <ele>152</ele>
        <time>2026-03-04T13:37:52.000Z</time>
      </trkpt>
      <trkpt lat="43.5118" lon="6.64944">
        <ele>153</ele>
        <time>2026-03-04T13:38:01.000Z</time>
      </trkpt>
      <trkpt lat="43.5119" lon="6.64948">
        <ele>153</ele>
        <time>2026-03-04T13:38:10.000Z</time>
      </trkpt>
      <trkpt lat="43.512" lon="6.64954">
        <ele>154</ele>
        <time>2026-03-04T13:38:19.000Z</time>
      </trkpt>
      <trkpt lat="43.51209" lon="6.64961">
        <ele>154</ele>
        <time>2026-03-04T13:38:28.000Z</time>
      </trkpt>
      <trkpt lat="43.51219" lon="6.64967">
        <ele>155</ele>
        <time>2026-03-04T13:38:37.000Z</time>
      </trkpt>
      <trkpt lat="43.51228" lon="6.64975">
        <ele>155</ele>
        <time>2026-03-04T13:38:46.000Z</time>
      </trkpt>
      <trkpt lat="43.51239" lon="6.64982">
        <ele>155</ele>
        <time>2026-03-04T13:38:55.000Z</time>
      </trkpt>
      <trkpt lat="43.51249" lon="6.64988">
        <ele>155</ele>
        <time>2026-03-04T13:39:04.000Z</time>
      </trkpt>
      <trkpt lat="43.51259" lon="6.64994">
        <ele>156</ele>
        <time>2026-03-04T13:39:13.000Z</time>
      </trkpt>
      <trkpt lat="43.51269" lon="6.65002">
        <ele>156</ele>
        <time>2026-03-04T13:39:22.000Z</time>
      </trkpt>
      <trkpt lat="43.51278" lon="6.6501">
        <ele>156</ele>
        <time>2026-03-04T13:39:31.000Z</time>
      </trkpt>
      <trkpt lat="43.51286" lon="6.65019">
        <ele>156</ele>
        <time>2026-03-04T13:39:40.000Z</time>
      </trkpt>
      <trkpt lat="43.51293" lon="6.6503">
        <ele>156</ele>
        <time>2026-03-04T13:39:49.000Z</time>
      </trkpt>
      <trkpt lat="43.51299" lon="6.65043">
        <ele>156</ele>
        <time>2026-03-04T13:39:58.000Z</time>
      </trkpt>
      <trkpt lat="43.51303" lon="6.65056">
        <ele>155</ele>
        <time>2026-03-04T13:40:07.000Z</time>
      </trkpt>
      <trkpt lat="43.51306" lon="6.65071">
        <ele>155</ele>
        <time>2026-03-04T13:40:16.000Z</time>
      </trkpt>
      <trkpt lat="43.51308" lon="6.65084">
        <ele>154</ele>
        <time>2026-03-04T13:40:25.000Z</time>
      </trkpt>
      <trkpt lat="43.51311" lon="6.65098">
        <ele>153</ele>
        <time>2026-03-04T13:40:34.000Z</time>
      </trkpt>
      <trkpt lat="43.51314" lon="6.65113">
        <ele>153</ele>
        <time>2026-03-04T13:40:45.000Z</time>
      </trkpt>
      <trkpt lat="43.51321" lon="6.65125">
        <ele>152</ele>
        <time>2026-03-04T13:40:57.000Z</time>
      </trkpt>
      <trkpt lat="43.51331" lon="6.65131">
        <ele>152</ele>
        <time>2026-03-04T13:41:20.000Z</time>
      </trkpt>
      <trkpt lat="43.51341" lon="6.65128">
        <ele>151</ele>
        <time>2026-03-04T13:41:29.000Z</time>
      </trkpt>
      <trkpt lat="43.51347" lon="6.65117">
        <ele>150</ele>
        <time>2026-03-04T13:41:37.000Z</time>
      </trkpt>
      <trkpt lat="43.51347" lon="6.65104">
        <ele>150</ele>
        <time>2026-03-04T13:41:46.000Z</time>
      </trkpt>
      <trkpt lat="43.51345" lon="6.6509">
        <ele>149</ele>
        <time>2026-03-04T13:42:01.000Z</time>
      </trkpt>
      <trkpt lat="43.51344" lon="6.65076">
        <ele>149</ele>
        <time>2026-03-04T13:42:10.000Z</time>
      </trkpt>
      <trkpt lat="43.51346" lon="6.65062">
        <ele>149</ele>
        <time>2026-03-04T13:42:19.000Z</time>
      </trkpt>
      <trkpt lat="43.51348" lon="6.65048">
        <ele>149</ele>
        <time>2026-03-04T13:42:28.000Z</time>
      </trkpt>
      <trkpt lat="43.51351" lon="6.65034">
        <ele>148</ele>
        <time>2026-03-04T13:42:37.000Z</time>
      </trkpt>
      <trkpt lat="43.51354" lon="6.65021">
        <ele>148</ele>
        <time>2026-03-04T13:42:46.000Z</time>
      </trkpt>
      <trkpt lat="43.51358" lon="6.65008">
        <ele>147</ele>
        <time>2026-03-04T13:42:55.000Z</time>
      </trkpt>
      <trkpt lat="43.51361" lon="6.64993">
        <ele>146</ele>
        <time>2026-03-04T13:43:04.000Z</time>
      </trkpt>
      <trkpt lat="43.51363" lon="6.64978">
        <ele>146</ele>
        <time>2026-03-04T13:43:13.000Z</time>
      </trkpt>
      <trkpt lat="43.51362" lon="6.64964">
        <ele>145</ele>
        <time>2026-03-04T13:43:22.000Z</time>
      </trkpt>
      <trkpt lat="43.51354" lon="6.64954">
        <ele>145</ele>
        <time>2026-03-04T13:43:31.000Z</time>
      </trkpt>
      <trkpt lat="43.51351" lon="6.64946">
        <ele>145</ele>
        <time>2026-03-04T13:44:10.000Z</time>
      </trkpt>
      <trkpt lat="43.51358" lon="6.64954">
        <ele>145</ele>
        <time>2026-03-04T13:45:34.000Z</time>
      </trkpt>
      <trkpt lat="43.51363" lon="6.64963">
        <ele>145</ele>
        <time>2026-03-04T13:45:43.000Z</time>
      </trkpt>
      <trkpt lat="43.51363" lon="6.64978">
        <ele>146</ele>
        <time>2026-03-04T13:45:55.000Z</time>
      </trkpt>
      <trkpt lat="43.51361" lon="6.64992">
        <ele>146</ele>
        <time>2026-03-04T13:46:10.000Z</time>
      </trkpt>
      <trkpt lat="43.51358" lon="6.65005">
        <ele>147</ele>
        <time>2026-03-04T13:46:19.000Z</time>
      </trkpt>
      <trkpt lat="43.51355" lon="6.65018">
        <ele>147</ele>
        <time>2026-03-04T13:46:28.000Z</time>
      </trkpt>
      <trkpt lat="43.51351" lon="6.65032">
        <ele>147</ele>
        <time>2026-03-04T13:46:40.000Z</time>
      </trkpt>
      <trkpt lat="43.51348" lon="6.65045">
        <ele>148</ele>
        <time>2026-03-04T13:46:49.000Z</time>
      </trkpt>
      <trkpt lat="43.51346" lon="6.65059">
        <ele>148</ele>
        <time>2026-03-04T13:46:58.000Z</time>
      </trkpt>
      <trkpt lat="43.51345" lon="6.65073">
        <ele>149</ele>
        <time>2026-03-04T13:47:07.000Z</time>
      </trkpt>
      <trkpt lat="43.51345" lon="6.65087">
        <ele>150</ele>
        <time>2026-03-04T13:47:16.000Z</time>
      </trkpt>
      <trkpt lat="43.51346" lon="6.65101">
        <ele>150</ele>
        <time>2026-03-04T13:47:25.000Z</time>
      </trkpt>
      <trkpt lat="43.51348" lon="6.65115">
        <ele>150</ele>
        <time>2026-03-04T13:47:34.000Z</time>
      </trkpt>
      <trkpt lat="43.51345" lon="6.65129">
        <ele>150</ele>
        <time>2026-03-04T13:47:43.000Z</time>
      </trkpt>
      <trkpt lat="43.51341" lon="6.65144">
        <ele>151</ele>
        <time>2026-03-04T13:47:52.000Z</time>
      </trkpt>
      <trkpt lat="43.51335" lon="6.65158">
        <ele>151</ele>
        <time>2026-03-04T13:48:01.000Z</time>
      </trkpt>
      <trkpt lat="43.5133" lon="6.6517">
        <ele>151</ele>
        <time>2026-03-04T13:48:07.000Z</time>
      </trkpt>
      <trkpt lat="43.51325" lon="6.65181">
        <ele>151</ele>
        <time>2026-03-04T13:48:16.000Z</time>
      </trkpt>
      <trkpt lat="43.5132" lon="6.65191">
        <ele>151</ele>
        <time>2026-03-04T13:48:22.000Z</time>
      </trkpt>
      <trkpt lat="43.51315" lon="6.65204">
        <ele>151</ele>
        <time>2026-03-04T13:48:31.000Z</time>
      </trkpt>
      <trkpt lat="43.51311" lon="6.65215">
        <ele>151</ele>
        <time>2026-03-04T13:48:46.000Z</time>
      </trkpt>
      <trkpt lat="43.51305" lon="6.65228">
        <ele>150</ele>
        <time>2026-03-04T13:48:58.000Z</time>
      </trkpt>
      <trkpt lat="43.51298" lon="6.65239">
        <ele>150</ele>
        <time>2026-03-04T13:49:07.000Z</time>
      </trkpt>
      <trkpt lat="43.51291" lon="6.6525">
        <ele>150</ele>
        <time>2026-03-04T13:49:16.000Z</time>
      </trkpt>
      <trkpt lat="43.51284" lon="6.65262">
        <ele>150</ele>
        <time>2026-03-04T13:49:25.000Z</time>
      </trkpt>
      <trkpt lat="43.51276" lon="6.65275">
        <ele>149</ele>
        <time>2026-03-04T13:49:34.000Z</time>
      </trkpt>
      <trkpt lat="43.5127" lon="6.65288">
        <ele>149</ele>
        <time>2026-03-04T13:49:43.000Z</time>
      </trkpt>
      <trkpt lat="43.51264" lon="6.65299">
        <ele>149</ele>
        <time>2026-03-04T13:49:52.000Z</time>
      </trkpt>
      <trkpt lat="43.51259" lon="6.65309">
        <ele>148</ele>
        <time>2026-03-04T13:50:01.000Z</time>
      </trkpt>
      <trkpt lat="43.51252" lon="6.6532">
        <ele>148</ele>
        <time>2026-03-04T13:50:10.000Z</time>
      </trkpt>
      <trkpt lat="43.51246" lon="6.65331">
        <ele>148</ele>
        <time>2026-03-04T13:50:19.000Z</time>
      </trkpt>
      <trkpt lat="43.5124" lon="6.65343">
        <ele>148</ele>
        <time>2026-03-04T13:50:28.000Z</time>
      </trkpt>
      <trkpt lat="43.51235" lon="6.65356">
        <ele>148</ele>
        <time>2026-03-04T13:50:37.000Z</time>
      </trkpt>
      <trkpt lat="43.5123" lon="6.65367">
        <ele>147</ele>
        <time>2026-03-04T13:50:46.000Z</time>
      </trkpt>
      <trkpt lat="43.51223" lon="6.65378">
        <ele>146</ele>
        <time>2026-03-04T13:50:55.000Z</time>
      </trkpt>
      <trkpt lat="43.51216" lon="6.65389">
        <ele>146</ele>
        <time>2026-03-04T13:51:04.000Z</time>
      </trkpt>
      <trkpt lat="43.51209" lon="6.654">
        <ele>146</ele>
        <time>2026-03-04T13:51:13.000Z</time>
      </trkpt>
      <trkpt lat="43.51201" lon="6.6541">
        <ele>146</ele>
        <time>2026-03-04T13:51:22.000Z</time>
      </trkpt>
      <trkpt lat="43.51195" lon="6.6542">
        <ele>146</ele>
        <time>2026-03-04T13:51:31.000Z</time>
      </trkpt>
      <trkpt lat="43.51195" lon="6.65432">
        <ele>146</ele>
        <time>2026-03-04T13:51:40.000Z</time>
      </trkpt>
      <trkpt lat="43.51198" lon="6.65446">
        <ele>145</ele>
        <time>2026-03-04T13:51:49.000Z</time>
      </trkpt>
      <trkpt lat="43.51201" lon="6.6546">
        <ele>145</ele>
        <time>2026-03-04T13:51:58.000Z</time>
      </trkpt>
      <trkpt lat="43.51206" lon="6.65473">
        <ele>144</ele>
        <time>2026-03-04T13:52:07.000Z</time>
      </trkpt>
      <trkpt lat="43.51213" lon="6.65483">
        <ele>143</ele>
        <time>2026-03-04T13:52:16.000Z</time>
      </trkpt>
      <trkpt lat="43.5122" lon="6.65495">
        <ele>142</ele>
        <time>2026-03-04T13:52:25.000Z</time>
      </trkpt>
      <trkpt lat="43.51227" lon="6.65507">
        <ele>142</ele>
        <time>2026-03-04T13:52:35.000Z</time>
      </trkpt>
      <trkpt lat="43.51233" lon="6.65518">
        <ele>141</ele>
        <time>2026-03-04T13:52:44.000Z</time>
      </trkpt>
      <trkpt lat="43.51238" lon="6.65529">
        <ele>141</ele>
        <time>2026-03-04T13:52:53.000Z</time>
      </trkpt>
      <trkpt lat="43.51241" lon="6.65544">
        <ele>140</ele>
        <time>2026-03-04T13:53:02.000Z</time>
      </trkpt>
      <trkpt lat="43.51243" lon="6.6556">
        <ele>140</ele>
        <time>2026-03-04T13:53:11.000Z</time>
      </trkpt>
      <trkpt lat="43.51243" lon="6.65575">
        <ele>139</ele>
        <time>2026-03-04T13:53:20.000Z</time>
      </trkpt>
      <trkpt lat="43.51242" lon="6.6559">
        <ele>139</ele>
        <time>2026-03-04T13:53:29.000Z</time>
      </trkpt>
      <trkpt lat="43.5124" lon="6.65605">
        <ele>142</ele>
        <time>2026-03-04T13:53:38.000Z</time>
      </trkpt>
      <trkpt lat="43.51238" lon="6.65618">
        <ele>146</ele>
        <time>2026-03-04T13:53:47.000Z</time>
      </trkpt>
      <trkpt lat="43.51234" lon="6.65632">
        <ele>151</ele>
        <time>2026-03-04T13:54:02.000Z</time>
      </trkpt>
      <trkpt lat="43.51239" lon="6.65714">
        <ele>157</ele>
        <time>2026-03-04T13:54:41.000Z</time>
      </trkpt>
      <trkpt lat="43.51282" lon="6.66148">
        <ele>160</ele>
        <time>2026-03-04T14:08:44.000Z</time>
      </trkpt>
      <trkpt lat="43.51288" lon="6.66234">
        <ele>162</ele>
        <time>2026-03-04T14:08:53.000Z</time>
      </trkpt>
      <trkpt lat="43.51284" lon="6.6625">
        <ele>164</ele>
        <time>2026-03-04T14:09:02.000Z</time>
      </trkpt>
      <trkpt lat="43.5128" lon="6.66264">
        <ele>165</ele>
        <time>2026-03-04T14:09:11.000Z</time>
      </trkpt>
      <trkpt lat="43.51278" lon="6.66278">
        <ele>166</ele>
        <time>2026-03-04T14:09:20.000Z</time>
      </trkpt>
      <trkpt lat="43.51276" lon="6.66293">
        <ele>167</ele>
        <time>2026-03-04T14:09:29.000Z</time>
      </trkpt>
      <trkpt lat="43.51274" lon="6.66308">
        <ele>168</ele>
        <time>2026-03-04T14:09:38.000Z</time>
      </trkpt>
      <trkpt lat="43.51273" lon="6.66323">
        <ele>168</ele>
        <time>2026-03-04T14:09:47.000Z</time>
      </trkpt>
      <trkpt lat="43.5127" lon="6.66338">
        <ele>168</ele>
        <time>2026-03-04T14:09:56.000Z</time>
      </trkpt>
      <trkpt lat="43.51268" lon="6.66354">
        <ele>168</ele>
        <time>2026-03-04T14:10:05.000Z</time>
      </trkpt>
      <trkpt lat="43.51267" lon="6.66369">
        <ele>169</ele>
        <time>2026-03-04T14:10:14.000Z</time>
      </trkpt>
      <trkpt lat="43.51266" lon="6.66383">
        <ele>169</ele>
        <time>2026-03-04T14:10:22.000Z</time>
      </trkpt>
      <trkpt lat="43.51267" lon="6.66396">
        <ele>169</ele>
        <time>2026-03-04T14:10:30.000Z</time>
      </trkpt>
      <trkpt lat="43.51268" lon="6.66409">
        <ele>170</ele>
        <time>2026-03-04T14:10:39.000Z</time>
      </trkpt>
      <trkpt lat="43.51268" lon="6.66424">
        <ele>170</ele>
        <time>2026-03-04T14:10:48.000Z</time>
      </trkpt>
      <trkpt lat="43.51269" lon="6.66438">
        <ele>170</ele>
        <time>2026-03-04T14:10:57.000Z</time>
      </trkpt>
      <trkpt lat="43.5127" lon="6.66453">
        <ele>170</ele>
        <time>2026-03-04T14:11:06.000Z</time>
      </trkpt>
      <trkpt lat="43.51271" lon="6.66468">
        <ele>170</ele>
        <time>2026-03-04T14:11:15.000Z</time>
      </trkpt>
      <trkpt lat="43.51272" lon="6.66483">
        <ele>170</ele>
        <time>2026-03-04T14:11:24.000Z</time>
      </trkpt>
      <trkpt lat="43.51273" lon="6.66497">
        <ele>171</ele>
        <time>2026-03-04T14:11:33.000Z</time>
      </trkpt>
      <trkpt lat="43.51274" lon="6.66511">
        <ele>171</ele>
        <time>2026-03-04T14:11:42.000Z</time>
      </trkpt>
      <trkpt lat="43.51275" lon="6.66525">
        <ele>171</ele>
        <time>2026-03-04T14:11:51.000Z</time>
      </trkpt>
      <trkpt lat="43.51276" lon="6.66539">
        <ele>172</ele>
        <time>2026-03-04T14:12:00.000Z</time>
      </trkpt>
      <trkpt lat="43.51277" lon="6.66553">
        <ele>172</ele>
        <time>2026-03-04T14:12:09.000Z</time>
      </trkpt>
      <trkpt lat="43.51277" lon="6.66567">
        <ele>173</ele>
        <time>2026-03-04T14:12:18.000Z</time>
      </trkpt>
      <trkpt lat="43.51278" lon="6.6658">
        <ele>173</ele>
        <time>2026-03-04T14:12:27.000Z</time>
      </trkpt>
      <trkpt lat="43.51278" lon="6.66593">
        <ele>174</ele>
        <time>2026-03-04T14:12:36.000Z</time>
      </trkpt>
      <trkpt lat="43.51279" lon="6.66605">
        <ele>174</ele>
        <time>2026-03-04T14:12:45.000Z</time>
      </trkpt>
      <trkpt lat="43.5128" lon="6.66618">
        <ele>175</ele>
        <time>2026-03-04T14:12:54.000Z</time>
      </trkpt>
      <trkpt lat="43.51281" lon="6.66631">
        <ele>174</ele>
        <time>2026-03-04T14:13:06.000Z</time>
      </trkpt>
      <trkpt lat="43.51274" lon="6.66637">
        <ele>174</ele>
        <time>2026-03-04T14:13:33.000Z</time>
      </trkpt>
      <trkpt lat="43.51266" lon="6.66636">
        <ele>173</ele>
        <time>2026-03-04T14:13:48.000Z</time>
      </trkpt>
      <trkpt lat="43.51258" lon="6.66642">
        <ele>173</ele>
        <time>2026-03-04T14:14:09.000Z</time>
      </trkpt>
      <trkpt lat="43.51252" lon="6.66652">
        <ele>172</ele>
        <time>2026-03-04T14:14:24.000Z</time>
      </trkpt>
      <trkpt lat="43.51246" lon="6.66663">
        <ele>171</ele>
        <time>2026-03-04T14:14:36.000Z</time>
      </trkpt>
      <trkpt lat="43.51237" lon="6.66668">
        <ele>170</ele>
        <time>2026-03-04T14:14:48.000Z</time>
      </trkpt>
      <trkpt lat="43.51227" lon="6.66671">
        <ele>169</ele>
        <time>2026-03-04T14:15:00.000Z</time>
      </trkpt>
      <trkpt lat="43.5122" lon="6.66679">
        <ele>168</ele>
        <time>2026-03-04T14:15:12.000Z</time>
      </trkpt>
      <trkpt lat="43.51213" lon="6.6669">
        <ele>166</ele>
        <time>2026-03-04T14:15:24.000Z</time>
      </trkpt>
      <trkpt lat="43.51207" lon="6.66702">
        <ele>165</ele>
        <time>2026-03-04T14:15:36.000Z</time>
      </trkpt>
      <trkpt lat="43.51203" lon="6.66715">
        <ele>164</ele>
        <time>2026-03-04T14:15:48.000Z</time>
      </trkpt>
      <trkpt lat="43.512" lon="6.6673">
        <ele>163</ele>
        <time>2026-03-04T14:16:00.000Z</time>
      </trkpt>
      <trkpt lat="43.51199" lon="6.66744">
        <ele>162</ele>
        <time>2026-03-04T14:16:12.000Z</time>
      </trkpt>
      <trkpt lat="43.51198" lon="6.66757">
        <ele>161</ele>
        <time>2026-03-04T14:16:24.000Z</time>
      </trkpt>
      <trkpt lat="43.51196" lon="6.66771">
        <ele>160</ele>
        <time>2026-03-04T14:16:36.000Z</time>
      </trkpt>
      <trkpt lat="43.51195" lon="6.66785">
        <ele>159</ele>
        <time>2026-03-04T14:16:42.000Z</time>
      </trkpt>
      <trkpt lat="43.5119" lon="6.66795">
        <ele>158</ele>
        <time>2026-03-04T14:16:51.000Z</time>
      </trkpt>
      <trkpt lat="43.51183" lon="6.66802">
        <ele>157</ele>
        <time>2026-03-04T14:17:00.000Z</time>
      </trkpt>
      <trkpt lat="43.51175" lon="6.66808">
        <ele>160</ele>
        <time>2026-03-04T14:17:18.000Z</time>
      </trkpt>
      <trkpt lat="43.51165" lon="6.66814">
        <ele>163</ele>
        <time>2026-03-04T14:17:30.000Z</time>
      </trkpt>
      <trkpt lat="43.51157" lon="6.66821">
        <ele>167</ele>
        <time>2026-03-04T14:17:39.000Z</time>
      </trkpt>
      <trkpt lat="43.51176" lon="6.66904">
        <ele>172</ele>
        <time>2026-03-04T14:17:51.000Z</time>
      </trkpt>
      <trkpt lat="43.51337" lon="6.6737">
        <ele>173</ele>
        <time>2026-03-04T14:33:46.000Z</time>
      </trkpt>
      <trkpt lat="43.51355" lon="6.67456">
        <ele>175</ele>
        <time>2026-03-04T14:33:55.000Z</time>
      </trkpt>
      <trkpt lat="43.51348" lon="6.67463">
        <ele>176</ele>
        <time>2026-03-04T14:34:04.000Z</time>
      </trkpt>
      <trkpt lat="43.51338" lon="6.67468">
        <ele>177</ele>
        <time>2026-03-04T14:34:28.000Z</time>
      </trkpt>
      <trkpt lat="43.51328" lon="6.67475">
        <ele>177</ele>
        <time>2026-03-04T14:34:37.000Z</time>
      </trkpt>
      <trkpt lat="43.51321" lon="6.67487">
        <ele>177</ele>
        <time>2026-03-04T14:34:46.000Z</time>
      </trkpt>
      <trkpt lat="43.51317" lon="6.67499">
        <ele>177</ele>
        <time>2026-03-04T14:34:58.000Z</time>
      </trkpt>
      <trkpt lat="43.51314" lon="6.67513">
        <ele>176</ele>
        <time>2026-03-04T14:35:07.000Z</time>
      </trkpt>
      <trkpt lat="43.51313" lon="6.67526">
        <ele>176</ele>
        <time>2026-03-04T14:35:16.000Z</time>
      </trkpt>
      <trkpt lat="43.51318" lon="6.67536">
        <ele>175</ele>
        <time>2026-03-04T14:35:28.000Z</time>
      </trkpt>
      <trkpt lat="43.51324" lon="6.67546">
        <ele>175</ele>
        <time>2026-03-04T14:35:40.000Z</time>
      </trkpt>
      <trkpt lat="43.51327" lon="6.67559">
        <ele>174</ele>
        <time>2026-03-04T14:35:55.000Z</time>
      </trkpt>
      <trkpt lat="43.51329" lon="6.67574">
        <ele>174</ele>
        <time>2026-03-04T14:36:07.000Z</time>
      </trkpt>
      <trkpt lat="43.5133" lon="6.67588">
        <ele>173</ele>
        <time>2026-03-04T14:36:16.000Z</time>
      </trkpt>
      <trkpt lat="43.5133" lon="6.67602">
        <ele>172</ele>
        <time>2026-03-04T14:36:25.000Z</time>
      </trkpt>
      <trkpt lat="43.51325" lon="6.67615">
        <ele>171</ele>
        <time>2026-03-04T14:36:37.000Z</time>
      </trkpt>
      <trkpt lat="43.51317" lon="6.67626">
        <ele>170</ele>
        <time>2026-03-04T14:36:49.000Z</time>
      </trkpt>
      <trkpt lat="43.5131" lon="6.67635">
        <ele>170</ele>
        <time>2026-03-04T14:36:58.000Z</time>
      </trkpt>
      <trkpt lat="43.51301" lon="6.67642">
        <ele>169</ele>
        <time>2026-03-04T14:37:07.000Z</time>
      </trkpt>
      <trkpt lat="43.51293" lon="6.67651">
        <ele>169</ele>
        <time>2026-03-04T14:37:16.000Z</time>
      </trkpt>
      <trkpt lat="43.51287" lon="6.67662">
        <ele>169</ele>
        <time>2026-03-04T14:37:25.000Z</time>
      </trkpt>
      <trkpt lat="43.51281" lon="6.67673">
        <ele>168</ele>
        <time>2026-03-04T14:37:34.000Z</time>
      </trkpt>
      <trkpt lat="43.51274" lon="6.67683">
        <ele>168</ele>
        <time>2026-03-04T14:37:43.000Z</time>
      </trkpt>
      <trkpt lat="43.51269" lon="6.67694">
        <ele>168</ele>
        <time>2026-03-04T14:37:52.000Z</time>
      </trkpt>
      <trkpt lat="43.51269" lon="6.67708">
        <ele>168</ele>
        <time>2026-03-04T14:38:01.000Z</time>
      </trkpt>
      <trkpt lat="43.5127" lon="6.67725">
        <ele>168</ele>
        <time>2026-03-04T14:38:12.000Z</time>
      </trkpt>
      <trkpt lat="43.51268" lon="6.67739">
        <ele>168</ele>
        <time>2026-03-04T14:38:21.000Z</time>
      </trkpt>
      <trkpt lat="43.51268" lon="6.67753">
        <ele>167</ele>
        <time>2026-03-04T14:38:30.000Z</time>
      </trkpt>
      <trkpt lat="43.51267" lon="6.67767">
        <ele>167</ele>
        <time>2026-03-04T14:38:39.000Z</time>
      </trkpt>
      <trkpt lat="43.51265" lon="6.67782">
        <ele>167</ele>
        <time>2026-03-04T14:38:48.000Z</time>
      </trkpt>
      <trkpt lat="43.51262" lon="6.67799">
        <ele>167</ele>
        <time>2026-03-04T14:38:57.000Z</time>
      </trkpt>
      <trkpt lat="43.51261" lon="6.67813">
        <ele>167</ele>
        <time>2026-03-04T14:39:06.000Z</time>
      </trkpt>
      <trkpt lat="43.51261" lon="6.67826">
        <ele>167</ele>
        <time>2026-03-04T14:39:15.000Z</time>
      </trkpt>
      <trkpt lat="43.51258" lon="6.6784">
        <ele>167</ele>
        <time>2026-03-04T14:39:24.000Z</time>
      </trkpt>
      <trkpt lat="43.51255" lon="6.67852">
        <ele>167</ele>
        <time>2026-03-04T14:39:30.000Z</time>
      </trkpt>
      <trkpt lat="43.51253" lon="6.67868">
        <ele>167</ele>
        <time>2026-03-04T14:39:39.000Z</time>
      </trkpt>
      <trkpt lat="43.51253" lon="6.67884">
        <ele>167</ele>
        <time>2026-03-04T14:39:48.000Z</time>
      </trkpt>
      <trkpt lat="43.51253" lon="6.67899">
        <ele>167</ele>
        <time>2026-03-04T14:39:57.000Z</time>
      </trkpt>
      <trkpt lat="43.51251" lon="6.67912">
        <ele>167</ele>
        <time>2026-03-04T14:40:06.000Z</time>
      </trkpt>
      <trkpt lat="43.51245" lon="6.67922">
        <ele>167</ele>
        <time>2026-03-04T14:40:18.000Z</time>
      </trkpt>
      <trkpt lat="43.51235" lon="6.67927">
        <ele>167</ele>
        <time>2026-03-04T14:40:50.000Z</time>
      </trkpt>
      <trkpt lat="43.51228" lon="6.67933">
        <ele>166</ele>
        <time>2026-03-04T14:40:59.000Z</time>
      </trkpt>
      <trkpt lat="43.51223" lon="6.67947">
        <ele>166</ele>
        <time>2026-03-04T14:41:11.000Z</time>
      </trkpt>
      <trkpt lat="43.51201" lon="6.67962">
        <ele>166</ele>
        <time>2026-03-04T14:45:20.000Z</time>
      </trkpt>
      <trkpt lat="43.51192" lon="6.67972">
        <ele>166</ele>
        <time>2026-03-04T14:45:29.000Z</time>
      </trkpt>
      <trkpt lat="43.51195" lon="6.67983">
        <ele>166</ele>
        <time>2026-03-04T14:45:38.000Z</time>
      </trkpt>
      <trkpt lat="43.51201" lon="6.67994">
        <ele>167</ele>
        <time>2026-03-04T14:45:47.000Z</time>
      </trkpt>
      <trkpt lat="43.51207" lon="6.68008">
        <ele>167</ele>
        <time>2026-03-04T14:45:56.000Z</time>
      </trkpt>
      <trkpt lat="43.51213" lon="6.68021">
        <ele>167</ele>
        <time>2026-03-04T14:46:05.000Z</time>
      </trkpt>
      <trkpt lat="43.51219" lon="6.68035">
        <ele>168</ele>
        <time>2026-03-04T14:46:14.000Z</time>
      </trkpt>
      <trkpt lat="43.51224" lon="6.68049">
        <ele>168</ele>
        <time>2026-03-04T14:46:23.000Z</time>
      </trkpt>
      <trkpt lat="43.5123" lon="6.68062">
        <ele>169</ele>
        <time>2026-03-04T14:46:32.000Z</time>
      </trkpt>
      <trkpt lat="43.51234" lon="6.68073">
        <ele>169</ele>
        <time>2026-03-04T14:46:38.000Z</time>
      </trkpt>
      <trkpt lat="43.51239" lon="6.68084">
        <ele>169</ele>
        <time>2026-03-04T14:46:44.000Z</time>
      </trkpt>
      <trkpt lat="43.51243" lon="6.68098">
        <ele>169</ele>
        <time>2026-03-04T14:46:53.000Z</time>
      </trkpt>
      <trkpt lat="43.51245" lon="6.68113">
        <ele>169</ele>
        <time>2026-03-04T14:47:02.000Z</time>
      </trkpt>
      <trkpt lat="43.51247" lon="6.68128">
        <ele>173</ele>
        <time>2026-03-04T14:47:11.000Z</time>
      </trkpt>
      <trkpt lat="43.51249" lon="6.68144">
        <ele>177</ele>
        <time>2026-03-04T14:47:20.000Z</time>
      </trkpt>
      <trkpt lat="43.5125" lon="6.6816">
        <ele>181</ele>
        <time>2026-03-04T14:47:29.000Z</time>
      </trkpt>
      <trkpt lat="43.51273" lon="6.68167">
        <ele>186</ele>
        <time>2026-03-04T14:47:38.000Z</time>
      </trkpt>
      <trkpt lat="43.51405" lon="6.68127">
        <ele>188</ele>
        <time>2026-03-04T14:56:17.000Z</time>
      </trkpt>
      <trkpt lat="43.51435" lon="6.68118">
        <ele>191</ele>
        <time>2026-03-04T14:56:26.000Z</time>
      </trkpt>
      <trkpt lat="43.51444" lon="6.68112">
        <ele>193</ele>
        <time>2026-03-04T14:56:35.000Z</time>
      </trkpt>
      <trkpt lat="43.51449" lon="6.68102">
        <ele>195</ele>
        <time>2026-03-04T14:56:47.000Z</time>
      </trkpt>
      <trkpt lat="43.51444" lon="6.68091">
        <ele>196</ele>
        <time>2026-03-04T14:56:59.000Z</time>
      </trkpt>
      <trkpt lat="43.51436" lon="6.68083">
        <ele>197</ele>
        <time>2026-03-04T14:57:08.000Z</time>
      </trkpt>
      <trkpt lat="43.51427" lon="6.68076">
        <ele>198</ele>
        <time>2026-03-04T14:57:17.000Z</time>
      </trkpt>
      <trkpt lat="43.51419" lon="6.68068">
        <ele>199</ele>
        <time>2026-03-04T14:57:26.000Z</time>
      </trkpt>
      <trkpt lat="43.5141" lon="6.68059">
        <ele>200</ele>
        <time>2026-03-04T14:57:35.000Z</time>
      </trkpt>
      <trkpt lat="43.51402" lon="6.68049">
        <ele>201</ele>
        <time>2026-03-04T14:57:44.000Z</time>
      </trkpt>
      <trkpt lat="43.51394" lon="6.68038">
        <ele>201</ele>
        <time>2026-03-04T14:57:53.000Z</time>
      </trkpt>
      <trkpt lat="43.51388" lon="6.68026">
        <ele>201</ele>
        <time>2026-03-04T14:58:02.000Z</time>
      </trkpt>
      <trkpt lat="43.51384" lon="6.68013">
        <ele>201</ele>
        <time>2026-03-04T14:58:11.000Z</time>
      </trkpt>
      <trkpt lat="43.51378" lon="6.68002">
        <ele>200</ele>
        <time>2026-03-04T14:58:20.000Z</time>
      </trkpt>
      <trkpt lat="43.51368" lon="6.67997">
        <ele>200</ele>
        <time>2026-03-04T15:01:43.000Z</time>
      </trkpt>
      <trkpt lat="43.51359" lon="6.67998">
        <ele>200</ele>
        <time>2026-03-04T15:01:55.000Z</time>
      </trkpt>
      <trkpt lat="43.51352" lon="6.68008">
        <ele>200</ele>
        <time>2026-03-04T15:02:07.000Z</time>
      </trkpt>
      <trkpt lat="43.51349" lon="6.6802">
        <ele>201</ele>
        <time>2026-03-04T15:02:34.000Z</time>
      </trkpt>
      <trkpt lat="43.51342" lon="6.68022">
        <ele>201</ele>
        <time>2026-03-04T15:02:55.000Z</time>
      </trkpt>
      <trkpt lat="43.51343" lon="6.68029">
        <ele>201</ele>
        <time>2026-03-04T15:03:34.000Z</time>
      </trkpt>
      <trkpt lat="43.51344" lon="6.68021">
        <ele>201</ele>
        <time>2026-03-04T15:05:07.000Z</time>
      </trkpt>
      <trkpt lat="43.51349" lon="6.6801">
        <ele>200</ele>
        <time>2026-03-04T15:05:37.000Z</time>
      </trkpt>
      <trkpt lat="43.51357" lon="6.68">
        <ele>200</ele>
        <time>2026-03-04T15:06:10.000Z</time>
      </trkpt>
      <trkpt lat="43.51366" lon="6.67998">
        <ele>200</ele>
        <time>2026-03-04T15:06:25.000Z</time>
      </trkpt>
      <trkpt lat="43.51374" lon="6.68004">
        <ele>200</ele>
        <time>2026-03-04T15:10:58.000Z</time>
      </trkpt>
      <trkpt lat="43.51378" lon="6.68015">
        <ele>199</ele>
        <time>2026-03-04T15:11:10.000Z</time>
      </trkpt>
      <trkpt lat="43.51382" lon="6.68027">
        <ele>199</ele>
        <time>2026-03-04T15:11:19.000Z</time>
      </trkpt>
      <trkpt lat="43.51388" lon="6.6804">
        <ele>199</ele>
        <time>2026-03-04T15:11:37.000Z</time>
      </trkpt>
      <trkpt lat="43.51396" lon="6.6805">
        <ele>199</ele>
        <time>2026-03-04T15:11:49.000Z</time>
      </trkpt>
      <trkpt lat="43.51404" lon="6.6806">
        <ele>199</ele>
        <time>2026-03-04T15:12:01.000Z</time>
      </trkpt>
      <trkpt lat="43.51413" lon="6.68069">
        <ele>199</ele>
        <time>2026-03-04T15:12:13.000Z</time>
      </trkpt>
      <trkpt lat="43.51422" lon="6.68078">
        <ele>199</ele>
        <time>2026-03-04T15:12:24.000Z</time>
      </trkpt>
      <trkpt lat="43.51431" lon="6.68086">
        <ele>199</ele>
        <time>2026-03-04T15:12:33.000Z</time>
      </trkpt>
      <trkpt lat="43.5144" lon="6.68094">
        <ele>199</ele>
        <time>2026-03-04T15:12:42.000Z</time>
      </trkpt>
      <trkpt lat="43.51448" lon="6.68101">
        <ele>199</ele>
        <time>2026-03-04T15:12:54.000Z</time>
      </trkpt>
      <trkpt lat="43.51444" lon="6.6811">
        <ele>199</ele>
        <time>2026-03-04T15:13:09.000Z</time>
      </trkpt>
      <trkpt lat="43.51435" lon="6.68115">
        <ele>199</ele>
        <time>2026-03-04T15:13:21.000Z</time>
      </trkpt>
      <trkpt lat="43.51427" lon="6.68118">
        <ele>198</ele>
        <time>2026-03-04T15:13:30.000Z</time>
      </trkpt>
      <trkpt lat="43.51418" lon="6.68122">
        <ele>198</ele>
        <time>2026-03-04T15:13:39.000Z</time>
      </trkpt>
      <trkpt lat="43.51409" lon="6.68128">
        <ele>197</ele>
        <time>2026-03-04T15:13:48.000Z</time>
      </trkpt>
      <trkpt lat="43.51401" lon="6.68135">
        <ele>196</ele>
        <time>2026-03-04T15:13:57.000Z</time>
      </trkpt>
      <trkpt lat="43.51392" lon="6.68138">
        <ele>196</ele>
        <time>2026-03-04T15:14:06.000Z</time>
      </trkpt>
      <trkpt lat="43.51382" lon="6.68143">
        <ele>195</ele>
        <time>2026-03-04T15:14:15.000Z</time>
      </trkpt>
      <trkpt lat="43.51372" lon="6.6815">
        <ele>195</ele>
        <time>2026-03-04T15:14:24.000Z</time>
      </trkpt>
      <trkpt lat="43.51363" lon="6.68157">
        <ele>194</ele>
        <time>2026-03-04T15:14:33.000Z</time>
      </trkpt>
      <trkpt lat="43.51355" lon="6.68165">
        <ele>193</ele>
        <time>2026-03-04T15:14:42.000Z</time>
      </trkpt>
      <trkpt lat="43.51348" lon="6.68175">
        <ele>193</ele>
        <time>2026-03-04T15:14:51.000Z</time>
      </trkpt>
      <trkpt lat="43.51343" lon="6.68186">
        <ele>192</ele>
        <time>2026-03-04T15:15:03.000Z</time>
      </trkpt>
      <trkpt lat="43.51341" lon="6.682">
        <ele>192</ele>
        <time>2026-03-04T15:15:15.000Z</time>
      </trkpt>
      <trkpt lat="43.5134" lon="6.68214">
        <ele>191</ele>
        <time>2026-03-04T15:15:24.000Z</time>
      </trkpt>
      <trkpt lat="43.51342" lon="6.68228">
        <ele>191</ele>
        <time>2026-03-04T15:15:39.000Z</time>
      </trkpt>
      <trkpt lat="43.51347" lon="6.68241">
        <ele>190</ele>
        <time>2026-03-04T15:15:51.000Z</time>
      </trkpt>
      <trkpt lat="43.51353" lon="6.68253">
        <ele>189</ele>
        <time>2026-03-04T15:16:00.000Z</time>
      </trkpt>
      <trkpt lat="43.51356" lon="6.68264">
        <ele>188</ele>
        <time>2026-03-04T15:16:09.000Z</time>
      </trkpt>
      <trkpt lat="43.51351" lon="6.68274">
        <ele>187</ele>
        <time>2026-03-04T15:16:21.000Z</time>
      </trkpt>
      <trkpt lat="43.51341" lon="6.68279">
        <ele>186</ele>
        <time>2026-03-04T15:16:33.000Z</time>
      </trkpt>
      <trkpt lat="43.51335" lon="6.68288">
        <ele>186</ele>
        <time>2026-03-04T15:16:48.000Z</time>
      </trkpt>
      <trkpt lat="43.51334" lon="6.68303">
        <ele>186</ele>
        <time>2026-03-04T15:17:21.000Z</time>
      </trkpt>
      <trkpt lat="43.51334" lon="6.68316">
        <ele>186</ele>
        <time>2026-03-04T15:17:39.000Z</time>
      </trkpt>
      <trkpt lat="43.51332" lon="6.6833">
        <ele>186</ele>
        <time>2026-03-04T15:17:48.000Z</time>
      </trkpt>
      <trkpt lat="43.51332" lon="6.68343">
        <ele>185</ele>
        <time>2026-03-04T15:17:57.000Z</time>
      </trkpt>
      <trkpt lat="43.51333" lon="6.68357">
        <ele>185</ele>
        <time>2026-03-04T15:18:18.000Z</time>
      </trkpt>
      <trkpt lat="43.51332" lon="6.68369">
        <ele>186</ele>
        <time>2026-03-04T15:18:30.000Z</time>
      </trkpt>
      <trkpt lat="43.51332" lon="6.68384">
        <ele>187</ele>
        <time>2026-03-04T15:18:45.000Z</time>
      </trkpt>
      <trkpt lat="43.51336" lon="6.68395">
        <ele>188</ele>
        <time>2026-03-04T15:19:03.000Z</time>
      </trkpt>
      <trkpt lat="43.51343" lon="6.68401">
        <ele>190</ele>
        <time>2026-03-04T15:19:24.000Z</time>
      </trkpt>
      <trkpt lat="43.51347" lon="6.68411">
        <ele>191</ele>
        <time>2026-03-04T15:19:48.000Z</time>
      </trkpt>
      <trkpt lat="43.51343" lon="6.68422">
        <ele>193</ele>
        <time>2026-03-04T15:20:06.000Z</time>
      </trkpt>
      <trkpt lat="43.51344" lon="6.68435">
        <ele>194</ele>
        <time>2026-03-04T15:20:21.000Z</time>
      </trkpt>
      <trkpt lat="43.51347" lon="6.68447">
        <ele>195</ele>
        <time>2026-03-04T15:20:33.000Z</time>
      </trkpt>
      <trkpt lat="43.51351" lon="6.68458">
        <ele>196</ele>
        <time>2026-03-04T15:20:45.000Z</time>
      </trkpt>
      <trkpt lat="43.51353" lon="6.68471">
        <ele>198</ele>
        <time>2026-03-04T15:20:57.000Z</time>
      </trkpt>
      <trkpt lat="43.51356" lon="6.68485">
        <ele>199</ele>
        <time>2026-03-04T15:21:09.000Z</time>
      </trkpt>
      <trkpt lat="43.51361" lon="6.68495">
        <ele>200</ele>
        <time>2026-03-04T15:21:21.000Z</time>
      </trkpt>
      <trkpt lat="43.5137" lon="6.685">
        <ele>201</ele>
        <time>2026-03-04T15:21:30.000Z</time>
      </trkpt>
      <trkpt lat="43.51378" lon="6.68507">
        <ele>203</ele>
        <time>2026-03-04T15:21:42.000Z</time>
      </trkpt>
      <trkpt lat="43.51383" lon="6.68518">
        <ele>204</ele>
        <time>2026-03-04T15:21:54.000Z</time>
      </trkpt>
      <trkpt lat="43.51387" lon="6.6853">
        <ele>206</ele>
        <time>2026-03-04T15:22:06.000Z</time>
      </trkpt>
      <trkpt lat="43.5139" lon="6.68545">
        <ele>208</ele>
        <time>2026-03-04T15:22:15.000Z</time>
      </trkpt>
      <trkpt lat="43.51391" lon="6.68559">
        <ele>210</ele>
        <time>2026-03-04T15:22:30.000Z</time>
      </trkpt>
      <trkpt lat="43.5139" lon="6.6857">
        <ele>211</ele>
        <time>2026-03-04T15:22:51.000Z</time>
      </trkpt>
      <trkpt lat="43.51395" lon="6.68578">
        <ele>212</ele>
        <time>2026-03-04T15:23:06.000Z</time>
      </trkpt>
      <trkpt lat="43.51402" lon="6.68577">
        <ele>213</ele>
        <time>2026-03-04T15:25:24.000Z</time>
      </trkpt>
      <trkpt lat="43.51399" lon="6.68583">
        <ele>213</ele>
        <time>2026-03-04T15:27:54.000Z</time>
      </trkpt>
      <trkpt lat="43.51393" lon="6.68576">
        <ele>212</ele>
        <time>2026-03-04T15:29:48.000Z</time>
      </trkpt>
      <trkpt lat="43.51392" lon="6.68563">
        <ele>211</ele>
        <time>2026-03-04T15:30:21.000Z</time>
      </trkpt>
      <trkpt lat="43.5139" lon="6.68548">
        <ele>210</ele>
        <time>2026-03-04T15:30:36.000Z</time>
      </trkpt>
      <trkpt lat="43.5139" lon="6.68534">
        <ele>209</ele>
        <time>2026-03-04T15:30:48.000Z</time>
      </trkpt>
      <trkpt lat="43.51388" lon="6.68522">
        <ele>208</ele>
        <time>2026-03-04T15:31:03.000Z</time>
      </trkpt>
      <trkpt lat="43.51383" lon="6.68511">
        <ele>207</ele>
        <time>2026-03-04T15:31:24.000Z</time>
      </trkpt>
      <trkpt lat="43.51376" lon="6.68505">
        <ele>206</ele>
        <time>2026-03-04T15:31:33.000Z</time>
      </trkpt>
      <trkpt lat="43.51367" lon="6.685">
        <ele>205</ele>
        <time>2026-03-04T15:31:42.000Z</time>
      </trkpt>
      <trkpt lat="43.51358" lon="6.68491">
        <ele>203</ele>
        <time>2026-03-04T15:31:54.000Z</time>
      </trkpt>
      <trkpt lat="43.51349" lon="6.68485">
        <ele>202</ele>
        <time>2026-03-04T15:32:06.000Z</time>
      </trkpt>
      <trkpt lat="43.51341" lon="6.68479">
        <ele>202</ele>
        <time>2026-03-04T15:32:21.000Z</time>
      </trkpt>
      <trkpt lat="43.51332" lon="6.68472">
        <ele>201</ele>
        <time>2026-03-04T15:32:39.000Z</time>
      </trkpt>
      <trkpt lat="43.51324" lon="6.68463">
        <ele>201</ele>
        <time>2026-03-04T15:32:48.000Z</time>
      </trkpt>
      <trkpt lat="43.51316" lon="6.68455">
        <ele>199</ele>
        <time>2026-03-04T15:33:00.000Z</time>
      </trkpt>
      <trkpt lat="43.51307" lon="6.68454">
        <ele>198</ele>
        <time>2026-03-04T15:33:12.000Z</time>
      </trkpt>
      <trkpt lat="43.51296" lon="6.68457">
        <ele>197</ele>
        <time>2026-03-04T15:33:24.000Z</time>
      </trkpt>
      <trkpt lat="43.51286" lon="6.68462">
        <ele>196</ele>
        <time>2026-03-04T15:33:42.000Z</time>
      </trkpt>
      <trkpt lat="43.51278" lon="6.68467">
        <ele>195</ele>
        <time>2026-03-04T15:33:51.000Z</time>
      </trkpt>
      <trkpt lat="43.51269" lon="6.68472">
        <ele>194</ele>
        <time>2026-03-04T15:34:00.000Z</time>
      </trkpt>
      <trkpt lat="43.51261" lon="6.68478">
        <ele>193</ele>
        <time>2026-03-04T15:34:09.000Z</time>
      </trkpt>
      <trkpt lat="43.51253" lon="6.68484">
        <ele>191</ele>
        <time>2026-03-04T15:34:18.000Z</time>
      </trkpt>
      <trkpt lat="43.51244" lon="6.68491">
        <ele>190</ele>
        <time>2026-03-04T15:34:39.000Z</time>
      </trkpt>
      <trkpt lat="43.51233" lon="6.68496">
        <ele>189</ele>
        <time>2026-03-04T15:34:48.000Z</time>
      </trkpt>
      <trkpt lat="43.51223" lon="6.68501">
        <ele>188</ele>
        <time>2026-03-04T15:34:57.000Z</time>
      </trkpt>
      <trkpt lat="43.51219" lon="6.68514">
        <ele>188</ele>
        <time>2026-03-04T15:35:06.000Z</time>
      </trkpt>
      <trkpt lat="43.51216" lon="6.68528">
        <ele>187</ele>
        <time>2026-03-04T15:35:21.000Z</time>
      </trkpt>
      <trkpt lat="43.51211" lon="6.68539">
        <ele>187</ele>
        <time>2026-03-04T15:35:30.000Z</time>
      </trkpt>
      <trkpt lat="43.51204" lon="6.6855">
        <ele>186</ele>
        <time>2026-03-04T15:35:39.000Z</time>
      </trkpt>
      <trkpt lat="43.51197" lon="6.68562">
        <ele>186</ele>
        <time>2026-03-04T15:35:48.000Z</time>
      </trkpt>
      <trkpt lat="43.51192" lon="6.68575">
        <ele>186</ele>
        <time>2026-03-04T15:35:57.000Z</time>
      </trkpt>
      <trkpt lat="43.51188" lon="6.68588">
        <ele>186</ele>
        <time>2026-03-04T15:36:06.000Z</time>
      </trkpt>
      <trkpt lat="43.51184" lon="6.68602">
        <ele>187</ele>
        <time>2026-03-04T15:36:15.000Z</time>
      </trkpt>
      <trkpt lat="43.51179" lon="6.68615">
        <ele>187</ele>
        <time>2026-03-04T15:36:24.000Z</time>
      </trkpt>
      <trkpt lat="43.51173" lon="6.68629">
        <ele>188</ele>
        <time>2026-03-04T15:36:33.000Z</time>
      </trkpt>
      <trkpt lat="43.51166" lon="6.68638">
        <ele>189</ele>
        <time>2026-03-04T15:36:42.000Z</time>
      </trkpt>
      <trkpt lat="43.51158" lon="6.68642">
        <ele>189</ele>
        <time>2026-03-04T15:36:51.000Z</time>
      </trkpt>
      <trkpt lat="43.5115" lon="6.68633">
        <ele>190</ele>
        <time>2026-03-04T15:38:57.000Z</time>
      </trkpt>
      <trkpt lat="43.51144" lon="6.68621">
        <ele>190</ele>
        <time>2026-03-04T15:39:06.000Z</time>
      </trkpt>
      <trkpt lat="43.51139" lon="6.68609">
        <ele>190</ele>
        <time>2026-03-04T15:39:15.000Z</time>
      </trkpt>
      <trkpt lat="43.51134" lon="6.68597">
        <ele>190</ele>
        <time>2026-03-04T15:39:24.000Z</time>
      </trkpt>
      <trkpt lat="43.51129" lon="6.68584">
        <ele>190</ele>
        <time>2026-03-04T15:39:39.000Z</time>
      </trkpt>
      <trkpt lat="43.51123" lon="6.68571">
        <ele>191</ele>
        <time>2026-03-04T15:39:48.000Z</time>
      </trkpt>
      <trkpt lat="43.51119" lon="6.68556">
        <ele>191</ele>
        <time>2026-03-04T15:39:57.000Z</time>
      </trkpt>
      <trkpt lat="43.51117" lon="6.6854">
        <ele>191</ele>
        <time>2026-03-04T15:40:06.000Z</time>
      </trkpt>
      <trkpt lat="43.51118" lon="6.68524">
        <ele>191</ele>
        <time>2026-03-04T15:40:15.000Z</time>
      </trkpt>
      <trkpt lat="43.51122" lon="6.68509">
        <ele>191</ele>
        <time>2026-03-04T15:40:24.000Z</time>
      </trkpt>
      <trkpt lat="43.51127" lon="6.68493">
        <ele>191</ele>
        <time>2026-03-04T15:40:33.000Z</time>
      </trkpt>
      <trkpt lat="43.51132" lon="6.68478">
        <ele>190</ele>
        <time>2026-03-04T15:40:42.000Z</time>
      </trkpt>
      <trkpt lat="43.51135" lon="6.68461">
        <ele>190</ele>
        <time>2026-03-04T15:40:51.000Z</time>
      </trkpt>
      <trkpt lat="43.51138" lon="6.68444">
        <ele>190</ele>
        <time>2026-03-04T15:41:00.000Z</time>
      </trkpt>
      <trkpt lat="43.51141" lon="6.68429">
        <ele>190</ele>
        <time>2026-03-04T15:41:09.000Z</time>
      </trkpt>
      <trkpt lat="43.51148" lon="6.68417">
        <ele>189</ele>
        <time>2026-03-04T15:41:18.000Z</time>
      </trkpt>
      <trkpt lat="43.51158" lon="6.68407">
        <ele>189</ele>
        <time>2026-03-04T15:41:27.000Z</time>
      </trkpt>
      <trkpt lat="43.51167" lon="6.68394">
        <ele>188</ele>
        <time>2026-03-04T15:41:36.000Z</time>
      </trkpt>
      <trkpt lat="43.51175" lon="6.68381">
        <ele>188</ele>
        <time>2026-03-04T15:41:45.000Z</time>
      </trkpt>
      <trkpt lat="43.51182" lon="6.68368">
        <ele>187</ele>
        <time>2026-03-04T15:41:54.000Z</time>
      </trkpt>
      <trkpt lat="43.5119" lon="6.68354">
        <ele>187</ele>
        <time>2026-03-04T15:42:03.000Z</time>
      </trkpt>
      <trkpt lat="43.51195" lon="6.68344">
        <ele>187</ele>
        <time>2026-03-04T15:42:09.000Z</time>
      </trkpt>
      <trkpt lat="43.512" lon="6.68333">
        <ele>186</ele>
        <time>2026-03-04T15:42:15.000Z</time>
      </trkpt>
      <trkpt lat="43.51205" lon="6.68318">
        <ele>186</ele>
        <time>2026-03-04T15:42:24.000Z</time>
      </trkpt>
      <trkpt lat="43.51208" lon="6.68302">
        <ele>185</ele>
        <time>2026-03-04T15:42:33.000Z</time>
      </trkpt>
      <trkpt lat="43.51209" lon="6.68285">
        <ele>185</ele>
        <time>2026-03-04T15:42:42.000Z</time>
      </trkpt>
      <trkpt lat="43.51208" lon="6.68269">
        <ele>185</ele>
        <time>2026-03-04T15:42:51.000Z</time>
      </trkpt>
      <trkpt lat="43.51208" lon="6.68253">
        <ele>185</ele>
        <time>2026-03-04T15:43:00.000Z</time>
      </trkpt>
      <trkpt lat="43.51206" lon="6.6824">
        <ele>185</ele>
        <time>2026-03-04T15:43:06.000Z</time>
      </trkpt>
      <trkpt lat="43.51203" lon="6.68224">
        <ele>186</ele>
        <time>2026-03-04T15:43:15.000Z</time>
      </trkpt>
      <trkpt lat="43.512" lon="6.68207">
        <ele>186</ele>
        <time>2026-03-04T15:43:24.000Z</time>
      </trkpt>
      <trkpt lat="43.51197" lon="6.68191">
        <ele>186</ele>
        <time>2026-03-04T15:43:33.000Z</time>
      </trkpt>
      <trkpt lat="43.51193" lon="6.68176">
        <ele>186</ele>
        <time>2026-03-04T15:43:42.000Z</time>
      </trkpt>
      <trkpt lat="43.51188" lon="6.68161">
        <ele>186</ele>
        <time>2026-03-04T15:43:51.000Z</time>
      </trkpt>
      <trkpt lat="43.51181" lon="6.68147">
        <ele>186</ele>
        <time>2026-03-04T15:44:00.000Z</time>
      </trkpt>
      <trkpt lat="43.51175" lon="6.68133">
        <ele>186</ele>
        <time>2026-03-04T15:44:09.000Z</time>
      </trkpt>
      <trkpt lat="43.51168" lon="6.68119">
        <ele>186</ele>
        <time>2026-03-04T15:44:18.000Z</time>
      </trkpt>
      <trkpt lat="43.51161" lon="6.68107">
        <ele>186</ele>
        <time>2026-03-04T15:44:27.000Z</time>
      </trkpt>
      <trkpt lat="43.51153" lon="6.68095">
        <ele>186</ele>
        <time>2026-03-04T15:44:36.000Z</time>
      </trkpt>
      <trkpt lat="43.51145" lon="6.68086">
        <ele>186</ele>
        <time>2026-03-04T15:44:45.000Z</time>
      </trkpt>
      <trkpt lat="43.51137" lon="6.68077">
        <ele>185</ele>
        <time>2026-03-04T15:44:54.000Z</time>
      </trkpt>
      <trkpt lat="43.51128" lon="6.68068">
        <ele>185</ele>
        <time>2026-03-04T15:45:03.000Z</time>
      </trkpt>
      <trkpt lat="43.51119" lon="6.68059">
        <ele>184</ele>
        <time>2026-03-04T15:45:12.000Z</time>
      </trkpt>
      <trkpt lat="43.5111" lon="6.6805">
        <ele>183</ele>
        <time>2026-03-04T15:45:21.000Z</time>
      </trkpt>
      <trkpt lat="43.51102" lon="6.68039">
        <ele>182</ele>
        <time>2026-03-04T15:45:30.000Z</time>
      </trkpt>
      <trkpt lat="43.51091" lon="6.68016">
        <ele>180</ele>
        <time>2026-03-04T15:45:39.000Z</time>
      </trkpt>
      <trkpt lat="43.51057" lon="6.67943">
        <ele>179</ele>
        <time>2026-03-04T15:46:42.000Z</time>
      </trkpt>
      <trkpt lat="43.51044" lon="6.67922">
        <ele>178</ele>
        <time>2026-03-04T15:46:51.000Z</time>
      </trkpt>
      <trkpt lat="43.51035" lon="6.67912">
        <ele>177</ele>
        <time>2026-03-04T15:47:00.000Z</time>
      </trkpt>
      <trkpt lat="43.51027" lon="6.67905">
        <ele>176</ele>
        <time>2026-03-04T15:47:09.000Z</time>
      </trkpt>
      <trkpt lat="43.51016" lon="6.67904">
        <ele>176</ele>
        <time>2026-03-04T15:47:18.000Z</time>
      </trkpt>
      <trkpt lat="43.51005" lon="6.67902">
        <ele>175</ele>
        <time>2026-03-04T15:47:27.000Z</time>
      </trkpt>
      <trkpt lat="43.50994" lon="6.67901">
        <ele>175</ele>
        <time>2026-03-04T15:47:36.000Z</time>
      </trkpt>
      <trkpt lat="43.50983" lon="6.67898">
        <ele>175</ele>
        <time>2026-03-04T15:47:45.000Z</time>
      </trkpt>
      <trkpt lat="43.50972" lon="6.67891">
        <ele>175</ele>
        <time>2026-03-04T15:47:54.000Z</time>
      </trkpt>
      <trkpt lat="43.50962" lon="6.67883">
        <ele>175</ele>
        <time>2026-03-04T15:48:03.000Z</time>
      </trkpt>
      <trkpt lat="43.50951" lon="6.67875">
        <ele>174</ele>
        <time>2026-03-04T15:48:12.000Z</time>
      </trkpt>
      <trkpt lat="43.50941" lon="6.67867">
        <ele>174</ele>
        <time>2026-03-04T15:48:21.000Z</time>
      </trkpt>
      <trkpt lat="43.50932" lon="6.67858">
        <ele>173</ele>
        <time>2026-03-04T15:48:30.000Z</time>
      </trkpt>
      <trkpt lat="43.50924" lon="6.67851">
        <ele>172</ele>
        <time>2026-03-04T15:48:39.000Z</time>
      </trkpt>
      <trkpt lat="43.50915" lon="6.67844">
        <ele>171</ele>
        <time>2026-03-04T15:48:48.000Z</time>
      </trkpt>
      <trkpt lat="43.50906" lon="6.67838">
        <ele>170</ele>
        <time>2026-03-04T15:48:57.000Z</time>
      </trkpt>
      <trkpt lat="43.50898" lon="6.67829">
        <ele>169</ele>
        <time>2026-03-04T15:49:06.000Z</time>
      </trkpt>
      <trkpt lat="43.50891" lon="6.6782">
        <ele>168</ele>
        <time>2026-03-04T15:49:15.000Z</time>
      </trkpt>
      <trkpt lat="43.50883" lon="6.67813">
        <ele>167</ele>
        <time>2026-03-04T15:49:24.000Z</time>
      </trkpt>
      <trkpt lat="43.50875" lon="6.67806">
        <ele>166</ele>
        <time>2026-03-04T15:49:33.000Z</time>
      </trkpt>
      <trkpt lat="43.50867" lon="6.67799">
        <ele>165</ele>
        <time>2026-03-04T15:49:45.000Z</time>
      </trkpt>
      <trkpt lat="43.50859" lon="6.67793">
        <ele>164</ele>
        <time>2026-03-04T15:49:54.000Z</time>
      </trkpt>
      <trkpt lat="43.5085" lon="6.67789">
        <ele>162</ele>
        <time>2026-03-04T15:50:03.000Z</time>
      </trkpt>
      <trkpt lat="43.50841" lon="6.6779">
        <ele>161</ele>
        <time>2026-03-04T15:50:09.000Z</time>
      </trkpt>
      <trkpt lat="43.50832" lon="6.67795">
        <ele>160</ele>
        <time>2026-03-04T15:50:15.000Z</time>
      </trkpt>
      <trkpt lat="43.50822" lon="6.678">
        <ele>159</ele>
        <time>2026-03-04T15:50:24.000Z</time>
      </trkpt>
      <trkpt lat="43.50811" lon="6.67805">
        <ele>158</ele>
        <time>2026-03-04T15:50:33.000Z</time>
      </trkpt>
      <trkpt lat="43.508" lon="6.67809">
        <ele>157</ele>
        <time>2026-03-04T15:50:48.000Z</time>
      </trkpt>
      <trkpt lat="43.5079" lon="6.67814">
        <ele>156</ele>
        <time>2026-03-04T15:50:57.000Z</time>
      </trkpt>
      <trkpt lat="43.5078" lon="6.67819">
        <ele>155</ele>
        <time>2026-03-04T15:51:06.000Z</time>
      </trkpt>
      <trkpt lat="43.50771" lon="6.67824">
        <ele>155</ele>
        <time>2026-03-04T15:51:15.000Z</time>
      </trkpt>
      <trkpt lat="43.50761" lon="6.6783">
        <ele>154</ele>
        <time>2026-03-04T15:51:24.000Z</time>
      </trkpt>
      <trkpt lat="43.50751" lon="6.67837">
        <ele>154</ele>
        <time>2026-03-04T15:51:33.000Z</time>
      </trkpt>
      <trkpt lat="43.5074" lon="6.67845">
        <ele>153</ele>
        <time>2026-03-04T15:51:42.000Z</time>
      </trkpt>
      <trkpt lat="43.5073" lon="6.67853">
        <ele>153</ele>
        <time>2026-03-04T15:51:51.000Z</time>
      </trkpt>
      <trkpt lat="43.50721" lon="6.67863">
        <ele>152</ele>
        <time>2026-03-04T15:52:00.000Z</time>
      </trkpt>
      <trkpt lat="43.50714" lon="6.67871">
        <ele>152</ele>
        <time>2026-03-04T15:52:06.000Z</time>
      </trkpt>
      <trkpt lat="43.50708" lon="6.67879">
        <ele>152</ele>
        <time>2026-03-04T15:52:12.000Z</time>
      </trkpt>
      <trkpt lat="43.50699" lon="6.67889">
        <ele>152</ele>
        <time>2026-03-04T15:52:18.000Z</time>
      </trkpt>
      <trkpt lat="43.5069" lon="6.67898">
        <ele>152</ele>
        <time>2026-03-04T15:52:24.000Z</time>
      </trkpt>
      <trkpt lat="43.50681" lon="6.67906">
        <ele>151</ele>
        <time>2026-03-04T15:52:30.000Z</time>
      </trkpt>
      <trkpt lat="43.50671" lon="6.67914">
        <ele>148</ele>
        <time>2026-03-04T15:52:39.000Z</time>
      </trkpt>
      <trkpt lat="43.50661" lon="6.67922">
        <ele>144</ele>
        <time>2026-03-04T15:52:48.000Z</time>
      </trkpt>
      <trkpt lat="43.5065" lon="6.6793">
        <ele>139</ele>
        <time>2026-03-04T15:53:03.000Z</time>
      </trkpt>
      <trkpt lat="43.50636" lon="6.67834">
        <ele>133</ele>
        <time>2026-03-04T15:53:12.000Z</time>
      </trkpt>
      <trkpt lat="43.50607" lon="6.67223">
        <ele>129</ele>
        <time>2026-03-04T16:07:53.000Z</time>
      </trkpt>
      <trkpt lat="43.50596" lon="6.67092">
        <ele>126</ele>
        <time>2026-03-04T16:08:02.000Z</time>
      </trkpt>
      <trkpt lat="43.50576" lon="6.66969">
        <ele>123</ele>
        <time>2026-03-04T16:12:31.000Z</time>
      </trkpt>
      <trkpt lat="43.50577" lon="6.66936">
        <ele>121</ele>
        <time>2026-03-04T16:12:40.000Z</time>
      </trkpt>
      <trkpt lat="43.50579" lon="6.6692">
        <ele>120</ele>
        <time>2026-03-04T16:12:49.000Z</time>
      </trkpt>
      <trkpt lat="43.50578" lon="6.66905">
        <ele>119</ele>
        <time>2026-03-04T16:12:58.000Z</time>
      </trkpt>
      <trkpt lat="43.50575" lon="6.66889">
        <ele>118</ele>
        <time>2026-03-04T16:13:07.000Z</time>
      </trkpt>
      <trkpt lat="43.50572" lon="6.66874">
        <ele>118</ele>
        <time>2026-03-04T16:13:16.000Z</time>
      </trkpt>
      <trkpt lat="43.50569" lon="6.66858">
        <ele>118</ele>
        <time>2026-03-04T16:13:25.000Z</time>
      </trkpt>
      <trkpt lat="43.50568" lon="6.66842">
        <ele>118</ele>
        <time>2026-03-04T16:13:34.000Z</time>
      </trkpt>
      <trkpt lat="43.50567" lon="6.66825">
        <ele>118</ele>
        <time>2026-03-04T16:13:43.000Z</time>
      </trkpt>
      <trkpt lat="43.50568" lon="6.66808">
        <ele>118</ele>
        <time>2026-03-04T16:13:52.000Z</time>
      </trkpt>
      <trkpt lat="43.50571" lon="6.66792">
        <ele>118</ele>
        <time>2026-03-04T16:14:01.000Z</time>
      </trkpt>
      <trkpt lat="43.50576" lon="6.66777">
        <ele>118</ele>
        <time>2026-03-04T16:14:10.000Z</time>
      </trkpt>
      <trkpt lat="43.50582" lon="6.66762">
        <ele>118</ele>
        <time>2026-03-04T16:14:19.000Z</time>
      </trkpt>
      <trkpt lat="43.5059" lon="6.6675">
        <ele>119</ele>
        <time>2026-03-04T16:14:28.000Z</time>
      </trkpt>
      <trkpt lat="43.50598" lon="6.66741">
        <ele>119</ele>
        <time>2026-03-04T16:14:34.000Z</time>
      </trkpt>
      <trkpt lat="43.50609" lon="6.66733">
        <ele>119</ele>
        <time>2026-03-04T16:14:43.000Z</time>
      </trkpt>
      <trkpt lat="43.5062" lon="6.66726">
        <ele>119</ele>
        <time>2026-03-04T16:14:52.000Z</time>
      </trkpt>
      <trkpt lat="43.50631" lon="6.66721">
        <ele>119</ele>
        <time>2026-03-04T16:15:01.000Z</time>
      </trkpt>
      <trkpt lat="43.50642" lon="6.66716">
        <ele>119</ele>
        <time>2026-03-04T16:15:10.000Z</time>
      </trkpt>
      <trkpt lat="43.50654" lon="6.66711">
        <ele>119</ele>
        <time>2026-03-04T16:15:19.000Z</time>
      </trkpt>
      <trkpt lat="43.50663" lon="6.66703">
        <ele>119</ele>
        <time>2026-03-04T16:15:28.000Z</time>
      </trkpt>
      <trkpt lat="43.50671" lon="6.66692">
        <ele>119</ele>
        <time>2026-03-04T16:15:37.000Z</time>
      </trkpt>
      <trkpt lat="43.50678" lon="6.66673">
        <ele>119</ele>
        <time>2026-03-04T16:15:46.000Z</time>
      </trkpt>
      <trkpt lat="43.50692" lon="6.66627">
        <ele>120</ele>
        <time>2026-03-04T16:16:13.000Z</time>
      </trkpt>
      <trkpt lat="43.50698" lon="6.66608">
        <ele>120</ele>
        <time>2026-03-04T16:16:22.000Z</time>
      </trkpt>
      <trkpt lat="43.50702" lon="6.66596">
        <ele>120</ele>
        <time>2026-03-04T16:16:34.000Z</time>
      </trkpt>
      <trkpt lat="43.50707" lon="6.66582">
        <ele>120</ele>
        <time>2026-03-04T16:16:43.000Z</time>
      </trkpt>
      <trkpt lat="43.50709" lon="6.66563">
        <ele>120</ele>
        <time>2026-03-04T16:16:52.000Z</time>
      </trkpt>
      <trkpt lat="43.5069" lon="6.66517">
        <ele>121</ele>
        <time>2026-03-04T16:20:43.000Z</time>
      </trkpt>
      <trkpt lat="43.50686" lon="6.66497">
        <ele>121</ele>
        <time>2026-03-04T16:20:52.000Z</time>
      </trkpt>
      <trkpt lat="43.50686" lon="6.66485">
        <ele>121</ele>
        <time>2026-03-04T16:20:58.000Z</time>
      </trkpt>
      <trkpt lat="43.50687" lon="6.66468">
        <ele>121</ele>
        <time>2026-03-04T16:21:07.000Z</time>
      </trkpt>
      <trkpt lat="43.5069" lon="6.66452">
        <ele>121</ele>
        <time>2026-03-04T16:21:16.000Z</time>
      </trkpt>
      <trkpt lat="43.50693" lon="6.66436">
        <ele>121</ele>
        <time>2026-03-04T16:21:25.000Z</time>
      </trkpt>
      <trkpt lat="43.50695" lon="6.6642">
        <ele>121</ele>
        <time>2026-03-04T16:21:34.000Z</time>
      </trkpt>
      <trkpt lat="43.50697" lon="6.66404">
        <ele>122</ele>
        <time>2026-03-04T16:21:43.000Z</time>
      </trkpt>
      <trkpt lat="43.507" lon="6.66389">
        <ele>122</ele>
        <time>2026-03-04T16:21:52.000Z</time>
      </trkpt>
      <trkpt lat="43.50704" lon="6.66374">
        <ele>123</ele>
        <time>2026-03-04T16:22:01.000Z</time>
      </trkpt>
      <trkpt lat="43.50707" lon="6.6636">
        <ele>124</ele>
        <time>2026-03-04T16:22:10.000Z</time>
      </trkpt>
      <trkpt lat="43.50711" lon="6.66347">
        <ele>124</ele>
        <time>2026-03-04T16:22:16.000Z</time>
      </trkpt>
      <trkpt lat="43.50714" lon="6.66332">
        <ele>124</ele>
        <time>2026-03-04T16:22:25.000Z</time>
      </trkpt>
      <trkpt lat="43.50718" lon="6.6632">
        <ele>125</ele>
        <time>2026-03-04T16:22:31.000Z</time>
      </trkpt>
      <trkpt lat="43.50724" lon="6.66306">
        <ele>125</ele>
        <time>2026-03-04T16:22:40.000Z</time>
      </trkpt>
      <trkpt lat="43.50729" lon="6.66295">
        <ele>125</ele>
        <time>2026-03-04T16:22:49.000Z</time>
      </trkpt>
      <trkpt lat="43.50734" lon="6.66282">
        <ele>125</ele>
        <time>2026-03-04T16:22:58.000Z</time>
      </trkpt>
      <trkpt lat="43.50734" lon="6.66266">
        <ele>125</ele>
        <time>2026-03-04T16:23:07.000Z</time>
      </trkpt>
      <trkpt lat="43.50733" lon="6.66253">
        <ele>125</ele>
        <time>2026-03-04T16:23:13.000Z</time>
      </trkpt>
      <trkpt lat="43.50734" lon="6.66237">
        <ele>125</ele>
        <time>2026-03-04T16:23:22.000Z</time>
      </trkpt>
      <trkpt lat="43.50735" lon="6.66225">
        <ele>125</ele>
        <time>2026-03-04T16:23:28.000Z</time>
      </trkpt>
      <trkpt lat="43.50735" lon="6.66212">
        <ele>125</ele>
        <time>2026-03-04T16:23:34.000Z</time>
      </trkpt>
      <trkpt lat="43.50735" lon="6.66198">
        <ele>125</ele>
        <time>2026-03-04T16:23:43.000Z</time>
      </trkpt>
      <trkpt lat="43.50735" lon="6.66183">
        <ele>125</ele>
        <time>2026-03-04T16:23:52.000Z</time>
      </trkpt>
      <trkpt lat="43.50736" lon="6.66168">
        <ele>125</ele>
        <time>2026-03-04T16:24:01.000Z</time>
      </trkpt>
      <trkpt lat="43.50738" lon="6.66152">
        <ele>125</ele>
        <time>2026-03-04T16:24:10.000Z</time>
      </trkpt>
      <trkpt lat="43.50738" lon="6.6614">
        <ele>125</ele>
        <time>2026-03-04T16:24:16.000Z</time>
      </trkpt>
      <trkpt lat="43.50739" lon="6.66128">
        <ele>125</ele>
        <time>2026-03-04T16:24:22.000Z</time>
      </trkpt>
      <trkpt lat="43.5074" lon="6.66116">
        <ele>125</ele>
        <time>2026-03-04T16:24:28.000Z</time>
      </trkpt>
      <trkpt lat="43.50742" lon="6.661">
        <ele>125</ele>
        <time>2026-03-04T16:24:37.000Z</time>
      </trkpt>
      <trkpt lat="43.50745" lon="6.66084">
        <ele>124</ele>
        <time>2026-03-04T16:24:46.000Z</time>
      </trkpt>
      <trkpt lat="43.50748" lon="6.66068">
        <ele>124</ele>
        <time>2026-03-04T16:24:55.000Z</time>
      </trkpt>
      <trkpt lat="43.5075" lon="6.66051">
        <ele>124</ele>
        <time>2026-03-04T16:25:04.000Z</time>
      </trkpt>
      <trkpt lat="43.50752" lon="6.66035">
        <ele>124</ele>
        <time>2026-03-04T16:25:13.000Z</time>
      </trkpt>
      <trkpt lat="43.50755" lon="6.6602">
        <ele>124</ele>
        <time>2026-03-04T16:25:22.000Z</time>
      </trkpt>
      <trkpt lat="43.50758" lon="6.66004">
        <ele>123</ele>
        <time>2026-03-04T16:25:31.000Z</time>
      </trkpt>
      <trkpt lat="43.5076" lon="6.65991">
        <ele>123</ele>
        <time>2026-03-04T16:25:37.000Z</time>
      </trkpt>
      <trkpt lat="43.5076" lon="6.65974">
        <ele>123</ele>
        <time>2026-03-04T16:25:46.000Z</time>
      </trkpt>
      <trkpt lat="43.50758" lon="6.65958">
        <ele>122</ele>
        <time>2026-03-04T16:25:55.000Z</time>
      </trkpt>
      <trkpt lat="43.50757" lon="6.65942">
        <ele>122</ele>
        <time>2026-03-04T16:26:04.000Z</time>
      </trkpt>
      <trkpt lat="43.50757" lon="6.65927">
        <ele>121</ele>
        <time>2026-03-04T16:26:13.000Z</time>
      </trkpt>
      <trkpt lat="43.50754" lon="6.65916">
        <ele>121</ele>
        <time>2026-03-04T16:27:31.000Z</time>
      </trkpt>
      <trkpt lat="43.50745" lon="6.65913">
        <ele>121</ele>
        <time>2026-03-04T16:27:40.000Z</time>
      </trkpt>
      <trkpt lat="43.50735" lon="6.65911">
        <ele>121</ele>
        <time>2026-03-04T16:27:49.000Z</time>
      </trkpt>
      <trkpt lat="43.50724" lon="6.65905">
        <ele>121</ele>
        <time>2026-03-04T16:27:58.000Z</time>
      </trkpt>
      <trkpt lat="43.50713" lon="6.65898">
        <ele>121</ele>
        <time>2026-03-04T16:28:13.000Z</time>
      </trkpt>
      <trkpt lat="43.50704" lon="6.6589">
        <ele>121</ele>
        <time>2026-03-04T16:28:22.000Z</time>
      </trkpt>
      <trkpt lat="43.50695" lon="6.6588">
        <ele>121</ele>
        <time>2026-03-04T16:28:31.000Z</time>
      </trkpt>
      <trkpt lat="43.50688" lon="6.65868">
        <ele>121</ele>
        <time>2026-03-04T16:28:40.000Z</time>
      </trkpt>
      <trkpt lat="43.5068" lon="6.65856">
        <ele>121</ele>
        <time>2026-03-04T16:28:49.000Z</time>
      </trkpt>
      <trkpt lat="43.50672" lon="6.65845">
        <ele>121</ele>
        <time>2026-03-04T16:28:58.000Z</time>
      </trkpt>
      <trkpt lat="43.50664" lon="6.65834">
        <ele>121</ele>
        <time>2026-03-04T16:29:07.000Z</time>
      </trkpt>
      <trkpt lat="43.50654" lon="6.65829">
        <ele>121</ele>
        <time>2026-03-04T16:29:16.000Z</time>
      </trkpt>
      <trkpt lat="43.50642" lon="6.65826">
        <ele>121</ele>
        <time>2026-03-04T16:29:25.000Z</time>
      </trkpt>
      <trkpt lat="43.50631" lon="6.65826">
        <ele>122</ele>
        <time>2026-03-04T16:29:34.000Z</time>
      </trkpt>
      <trkpt lat="43.50621" lon="6.65825">
        <ele>122</ele>
        <time>2026-03-04T16:29:43.000Z</time>
      </trkpt>
      <trkpt lat="43.50612" lon="6.65817">
        <ele>121</ele>
        <time>2026-03-04T16:29:52.000Z</time>
      </trkpt>
      <trkpt lat="43.50602" lon="6.65811">
        <ele>121</ele>
        <time>2026-03-04T16:30:01.000Z</time>
      </trkpt>
      <trkpt lat="43.50589" lon="6.65813">
        <ele>120</ele>
        <time>2026-03-04T16:30:10.000Z</time>
      </trkpt>
      <trkpt lat="43.50579" lon="6.65816">
        <ele>120</ele>
        <time>2026-03-04T16:30:19.000Z</time>
      </trkpt>
      <trkpt lat="43.50569" lon="6.65824">
        <ele>119</ele>
        <time>2026-03-04T16:30:28.000Z</time>
      </trkpt>
      <trkpt lat="43.5056" lon="6.65831">
        <ele>119</ele>
        <time>2026-03-04T16:30:37.000Z</time>
      </trkpt>
      <trkpt lat="43.50551" lon="6.65836">
        <ele>119</ele>
        <time>2026-03-04T16:30:49.000Z</time>
      </trkpt>
      <trkpt lat="43.5054" lon="6.65843">
        <ele>118</ele>
        <time>2026-03-04T16:30:58.000Z</time>
      </trkpt>
      <trkpt lat="43.50531" lon="6.6585">
        <ele>118</ele>
        <time>2026-03-04T16:31:07.000Z</time>
      </trkpt>
      <trkpt lat="43.50523" lon="6.65858">
        <ele>117</ele>
        <time>2026-03-04T16:31:13.000Z</time>
      </trkpt>
      <trkpt lat="43.50514" lon="6.65866">
        <ele>117</ele>
        <time>2026-03-04T16:31:22.000Z</time>
      </trkpt>
      <trkpt lat="43.50504" lon="6.65874">
        <ele>117</ele>
        <time>2026-03-04T16:31:31.000Z</time>
      </trkpt>
      <trkpt lat="43.50493" lon="6.65878">
        <ele>117</ele>
        <time>2026-03-04T16:31:40.000Z</time>
      </trkpt>
      <trkpt lat="43.50483" lon="6.6588">
        <ele>117</ele>
        <time>2026-03-04T16:31:55.000Z</time>
      </trkpt>
      <trkpt lat="43.50472" lon="6.65881">
        <ele>117</ele>
        <time>2026-03-04T16:32:07.000Z</time>
      </trkpt>
      <trkpt lat="43.5046" lon="6.65881">
        <ele>117</ele>
        <time>2026-03-04T16:32:16.000Z</time>
      </trkpt>
      <trkpt lat="43.50449" lon="6.65882">
        <ele>117</ele>
        <time>2026-03-04T16:32:25.000Z</time>
      </trkpt>
      <trkpt lat="43.50439" lon="6.65884">
        <ele>118</ele>
        <time>2026-03-04T16:32:34.000Z</time>
      </trkpt>
      <trkpt lat="43.50428" lon="6.65879">
        <ele>118</ele>
        <time>2026-03-04T16:32:43.000Z</time>
      </trkpt>
      <trkpt lat="43.50419" lon="6.65869">
        <ele>118</ele>
        <time>2026-03-04T16:32:52.000Z</time>
      </trkpt>
      <trkpt lat="43.50412" lon="6.65856">
        <ele>118</ele>
        <time>2026-03-04T16:33:01.000Z</time>
      </trkpt>
      <trkpt lat="43.50407" lon="6.65843">
        <ele>119</ele>
        <time>2026-03-04T16:33:10.000Z</time>
      </trkpt>
      <trkpt lat="43.50405" lon="6.65831">
        <ele>119</ele>
        <time>2026-03-04T16:34:13.000Z</time>
      </trkpt>
      <trkpt lat="43.50399" lon="6.65822">
        <ele>119</ele>
        <time>2026-03-04T16:34:49.000Z</time>
      </trkpt>
      <trkpt lat="43.50397" lon="6.6581">
        <ele>119</ele>
        <time>2026-03-04T16:34:58.000Z</time>
      </trkpt>
      <trkpt lat="43.50401" lon="6.65799">
        <ele>119</ele>
        <time>2026-03-04T16:35:07.000Z</time>
      </trkpt>
      <trkpt lat="43.50405" lon="6.65788">
        <ele>119</ele>
        <time>2026-03-04T16:35:22.000Z</time>
      </trkpt>
      <trkpt lat="43.50406" lon="6.65776">
        <ele>118</ele>
        <time>2026-03-04T16:35:31.000Z</time>
      </trkpt>
      <trkpt lat="43.50406" lon="6.65763">
        <ele>118</ele>
        <time>2026-03-04T16:35:40.000Z</time>
      </trkpt>
      <trkpt lat="43.50406" lon="6.65749">
        <ele>117</ele>
        <time>2026-03-04T16:35:49.000Z</time>
      </trkpt>
      <trkpt lat="43.50405" lon="6.65735">
        <ele>117</ele>
        <time>2026-03-04T16:35:58.000Z</time>
      </trkpt>
      <trkpt lat="43.50405" lon="6.65721">
        <ele>116</ele>
        <time>2026-03-04T16:36:07.000Z</time>
      </trkpt>
      <trkpt lat="43.50405" lon="6.65706">
        <ele>116</ele>
        <time>2026-03-04T16:36:19.000Z</time>
      </trkpt>
      <trkpt lat="43.50403" lon="6.65692">
        <ele>115</ele>
        <time>2026-03-04T16:36:31.000Z</time>
      </trkpt>
      <trkpt lat="43.50401" lon="6.65678">
        <ele>115</ele>
        <time>2026-03-04T16:36:43.000Z</time>
      </trkpt>
      <trkpt lat="43.50401" lon="6.65666">
        <ele>114</ele>
        <time>2026-03-04T16:36:52.000Z</time>
      </trkpt>
      <trkpt lat="43.50404" lon="6.65654">
        <ele>113</ele>
        <time>2026-03-04T16:37:10.000Z</time>
      </trkpt>
      <trkpt lat="43.50402" lon="6.65642">
        <ele>112</ele>
        <time>2026-03-04T16:37:25.000Z</time>
      </trkpt>
      <trkpt lat="43.50399" lon="6.65628">
        <ele>112</ele>
        <time>2026-03-04T16:37:43.000Z</time>
      </trkpt>
      <trkpt lat="43.50394" lon="6.65616">
        <ele>111</ele>
        <time>2026-03-04T16:37:55.000Z</time>
      </trkpt>
      <trkpt lat="43.50388" lon="6.65604">
        <ele>111</ele>
        <time>2026-03-04T16:38:07.000Z</time>
      </trkpt>
      <trkpt lat="43.50385" lon="6.65591">
        <ele>110</ele>
        <time>2026-03-04T16:38:22.000Z</time>
      </trkpt>
      <trkpt lat="43.50387" lon="6.65579">
        <ele>110</ele>
        <time>2026-03-04T16:38:31.000Z</time>
      </trkpt>
      <trkpt lat="43.50394" lon="6.6557">
        <ele>110</ele>
        <time>2026-03-04T16:38:43.000Z</time>
      </trkpt>
      <trkpt lat="43.50401" lon="6.65561">
        <ele>109</ele>
        <time>2026-03-04T16:38:52.000Z</time>
      </trkpt>
      <trkpt lat="43.50408" lon="6.65552">
        <ele>109</ele>
        <time>2026-03-04T16:39:04.000Z</time>
      </trkpt>
      <trkpt lat="43.50416" lon="6.65545">
        <ele>108</ele>
        <time>2026-03-04T16:39:25.000Z</time>
      </trkpt>
      <trkpt lat="43.50426" lon="6.65539">
        <ele>108</ele>
        <time>2026-03-04T16:39:40.000Z</time>
      </trkpt>
      <trkpt lat="43.50435" lon="6.65535">
        <ele>108</ele>
        <time>2026-03-04T16:39:52.000Z</time>
      </trkpt>
      <trkpt lat="43.50444" lon="6.65531">
        <ele>108</ele>
        <time>2026-03-04T16:40:10.000Z</time>
      </trkpt>
      <trkpt lat="43.50453" lon="6.65527">
        <ele>108</ele>
        <time>2026-03-04T16:40:19.000Z</time>
      </trkpt>
      <trkpt lat="43.50462" lon="6.65521">
        <ele>108</ele>
        <time>2026-03-04T16:40:31.000Z</time>
      </trkpt>
      <trkpt lat="43.50471" lon="6.65517">
        <ele>108</ele>
        <time>2026-03-04T16:40:40.000Z</time>
      </trkpt>
      <trkpt lat="43.5048" lon="6.65512">
        <ele>108</ele>
        <time>2026-03-04T16:40:49.000Z</time>
      </trkpt>
      <trkpt lat="43.50489" lon="6.65505">
        <ele>108</ele>
        <time>2026-03-04T16:40:58.000Z</time>
      </trkpt>
      <trkpt lat="43.50496" lon="6.65497">
        <ele>108</ele>
        <time>2026-03-04T16:41:07.000Z</time>
      </trkpt>
      <trkpt lat="43.50503" lon="6.65488">
        <ele>108</ele>
        <time>2026-03-04T16:41:16.000Z</time>
      </trkpt>
      <trkpt lat="43.50509" lon="6.65477">
        <ele>108</ele>
        <time>2026-03-04T16:41:25.000Z</time>
      </trkpt>
      <trkpt lat="43.50513" lon="6.65465">
        <ele>108</ele>
        <time>2026-03-04T16:41:34.000Z</time>
      </trkpt>
      <trkpt lat="43.50516" lon="6.65453">
        <ele>108</ele>
        <time>2026-03-04T16:41:43.000Z</time>
      </trkpt>
      <trkpt lat="43.50514" lon="6.65445">
        <ele>108</ele>
        <time>2026-03-04T16:41:55.000Z</time>
      </trkpt>
      <trkpt lat="43.50522" lon="6.65447">
        <ele>108</ele>
        <time>2026-03-04T16:44:04.000Z</time>
      </trkpt>
      <trkpt lat="43.50526" lon="6.65437">
        <ele>108</ele>
        <time>2026-03-04T16:44:22.000Z</time>
      </trkpt>
      <trkpt lat="43.50533" lon="6.65429">
        <ele>109</ele>
        <time>2026-03-04T16:44:34.000Z</time>
      </trkpt>
      <trkpt lat="43.50542" lon="6.65423">
        <ele>109</ele>
        <time>2026-03-04T16:44:49.000Z</time>
      </trkpt>
      <trkpt lat="43.50551" lon="6.65416">
        <ele>109</ele>
        <time>2026-03-04T16:45:01.000Z</time>
      </trkpt>
      <trkpt lat="43.50559" lon="6.65408">
        <ele>109</ele>
        <time>2026-03-04T16:45:16.000Z</time>
      </trkpt>
      <trkpt lat="43.50565" lon="6.65396">
        <ele>109</ele>
        <time>2026-03-04T16:45:31.000Z</time>
      </trkpt>
      <trkpt lat="43.50569" lon="6.65384">
        <ele>109</ele>
        <time>2026-03-04T16:45:40.000Z</time>
      </trkpt>
      <trkpt lat="43.50574" lon="6.65371">
        <ele>110</ele>
        <time>2026-03-04T16:45:49.000Z</time>
      </trkpt>
      <trkpt lat="43.50579" lon="6.65359">
        <ele>110</ele>
        <time>2026-03-04T16:45:58.000Z</time>
      </trkpt>
      <trkpt lat="43.50584" lon="6.65347">
        <ele>110</ele>
        <time>2026-03-04T16:46:07.000Z</time>
      </trkpt>
      <trkpt lat="43.5059" lon="6.65336">
        <ele>110</ele>
        <time>2026-03-04T16:46:16.000Z</time>
      </trkpt>
      <trkpt lat="43.50597" lon="6.65329">
        <ele>110</ele>
        <time>2026-03-04T16:46:25.000Z</time>
      </trkpt>
      <trkpt lat="43.50605" lon="6.65324">
        <ele>110</ele>
        <time>2026-03-04T16:46:34.000Z</time>
      </trkpt>
      <trkpt lat="43.50613" lon="6.6532">
        <ele>109</ele>
        <time>2026-03-04T16:46:46.000Z</time>
      </trkpt>
      <trkpt lat="43.50612" lon="6.65309">
        <ele>110</ele>
        <time>2026-03-04T16:47:28.000Z</time>
      </trkpt>
      <trkpt lat="43.5062" lon="6.65301">
        <ele>110</ele>
        <time>2026-03-04T16:47:58.000Z</time>
      </trkpt>
      <trkpt lat="43.50629" lon="6.65301">
        <ele>110</ele>
        <time>2026-03-04T16:48:37.000Z</time>
      </trkpt>
      <trkpt lat="43.50639" lon="6.65299">
        <ele>111</ele>
        <time>2026-03-04T16:49:55.000Z</time>
      </trkpt>
      <trkpt lat="43.5065" lon="6.65298">
        <ele>112</ele>
        <time>2026-03-04T16:50:10.000Z</time>
      </trkpt>
      <trkpt lat="43.5066" lon="6.653">
        <ele>113</ele>
        <time>2026-03-04T16:50:22.000Z</time>
      </trkpt>
      <trkpt lat="43.50669" lon="6.65302">
        <ele>114</ele>
        <time>2026-03-04T16:50:37.000Z</time>
      </trkpt>
      <trkpt lat="43.50678" lon="6.65306">
        <ele>116</ele>
        <time>2026-03-04T16:51:01.000Z</time>
      </trkpt>
      <trkpt lat="43.50687" lon="6.6531">
        <ele>117</ele>
        <time>2026-03-04T16:51:13.000Z</time>
      </trkpt>
      <trkpt lat="43.50696" lon="6.65316">
        <ele>119</ele>
        <time>2026-03-04T16:51:28.000Z</time>
      </trkpt>
      <trkpt lat="43.50705" lon="6.65319">
        <ele>120</ele>
        <time>2026-03-04T16:51:49.000Z</time>
      </trkpt>
      <trkpt lat="43.50714" lon="6.65319">
        <ele>122</ele>
        <time>2026-03-04T16:52:01.000Z</time>
      </trkpt>
      <trkpt lat="43.50723" lon="6.65315">
        <ele>123</ele>
        <time>2026-03-04T16:52:16.000Z</time>
      </trkpt>
      <trkpt lat="43.50731" lon="6.65309">
        <ele>125</ele>
        <time>2026-03-04T16:52:31.000Z</time>
      </trkpt>
      <trkpt lat="43.5074" lon="6.65309">
        <ele>126</ele>
        <time>2026-03-04T16:52:43.000Z</time>
      </trkpt>
      <trkpt lat="43.50749" lon="6.65315">
        <ele>127</ele>
        <time>2026-03-04T16:52:58.000Z</time>
      </trkpt>
      <trkpt lat="43.50757" lon="6.6532">
        <ele>128</ele>
        <time>2026-03-04T16:53:10.000Z</time>
      </trkpt>
      <trkpt lat="43.50766" lon="6.65321">
        <ele>130</ele>
        <time>2026-03-04T16:53:22.000Z</time>
      </trkpt>
      <trkpt lat="43.50775" lon="6.65318">
        <ele>131</ele>
        <time>2026-03-04T16:53:34.000Z</time>
      </trkpt>
      <trkpt lat="43.50784" lon="6.6531">
        <ele>132</ele>
        <time>2026-03-04T16:53:46.000Z</time>
      </trkpt>
      <trkpt lat="43.50791" lon="6.65299">
        <ele>133</ele>
        <time>2026-03-04T16:53:58.000Z</time>
      </trkpt>
      <trkpt lat="43.50798" lon="6.65287">
        <ele>134</ele>
        <time>2026-03-04T16:54:10.000Z</time>
      </trkpt>
      <trkpt lat="43.50801" lon="6.65276">
        <ele>135</ele>
        <time>2026-03-04T16:54:22.000Z</time>
      </trkpt>
      <trkpt lat="43.50792" lon="6.6527">
        <ele>136</ele>
        <time>2026-03-04T16:54:37.000Z</time>
      </trkpt>
      <trkpt lat="43.50782" lon="6.65268">
        <ele>135</ele>
        <time>2026-03-04T16:54:52.000Z</time>
      </trkpt>
      <trkpt lat="43.50773" lon="6.65265">
        <ele>136</ele>
        <time>2026-03-04T16:55:07.000Z</time>
      </trkpt>
    </trkseg>
  </trk>
</gpx>